M I D A S
Marine Information and Data Acquisition System
Tripno 1420 of the Zeeleeuw from 2008-01-30 07:56:28 to 2008-01-30 14:14:02
Back to CruiseResearch ActivitiesStationsMapUnderway DataData graphs

EquipmentUnitsComment
TimeDGPSUTC
LatitudeDGPSDM.mWGS84
LongitudeDGPSDM.mWGS84
TemperatureSBE03/SBE38deg celciusITS90
ConductivitySBE21S/mITS90
SalinitySBE21 Practical Salinity Units
ChlorophylAChelsea fluorimeterg/lCalibrated in Aceton
Missing or incorrect values are displayed as -999
Sea surface data collected by the RV Zeeleeuw from 2008-01-30 07:56:29 to 2008-01-30 14:25:45
                                                                                    Next 1000 lines
Time Latitude Longitude Temperature Conductivity Salinity ChlorophylA
2008-01-30 07:56:39 51°13.664 2°55.954 -999 0.241156 1.374671 -1.801521
2008-01-30 07:56:44 51°13.664 2°55.954 -999 0.241259 1.375262 -1.801521
2008-01-30 07:56:49 51°13.664 2°55.954 -999 0.241156 1.374671 -1.801521
2008-01-30 07:56:54 51°13.663 2°55.954 -999 0.241156 1.374671 -1.801521
2008-01-30 07:56:59 51°13.663 2°55.954 -999 0.241156 1.374671 -1.801521
2008-01-30 07:57:04 51°13.663 2°55.954 -999 0.241156 1.374671 -1.801521
2008-01-30 07:57:09 51°13.663 2°55.954 -999 0.241156 1.374671 -1.801521
2008-01-30 07:57:14 51°13.662 2°55.954 -999 0.241156 1.374698 -1.766697
2008-01-30 07:57:19 51°13.662 2°55.954 -999 0.241156 1.374726 -1.801521
2008-01-30 07:57:24 51°13.662 2°55.954 -999 0.241053 1.374134 -1.801521
2008-01-30 07:57:29 51°13.662 2°55.953 -999 0.241053 1.374162 -1.801521
2008-01-30 07:57:34 51°13.662 2°55.953 -999 0.241053 1.374162 -1.766697
2008-01-30 07:57:39 51°13.661 2°55.952 -999 0.241053 1.374162 -1.766697
2008-01-30 07:57:44 51°13.661 2°55.95 -999 0.241053 1.374162 -1.801521
2008-01-30 07:57:49 51°13.661 2°55.949 -999 0.241053 1.374134 -1.801521
2008-01-30 07:57:54 51°13.661 2°55.947 -999 0.241053 1.374134 -1.801521
2008-01-30 07:57:59 51°13.661 2°55.944 -999 0.24095 1.373516 -1.801521
2008-01-30 07:58:04 51°13.661 2°55.942 -999 0.24095 1.373516 -1.801521
2008-01-30 07:58:09 51°13.662 2°55.939 -999 0.24095 1.373488 -1.801521
2008-01-30 07:58:14 51°13.662 2°55.935 -999 0.24095 1.373488 -1.801521
2008-01-30 07:58:19 51°13.662 2°55.931 -999 0.24095 1.373461 -1.801521
2008-01-30 07:58:24 51°13.663 2°55.927 -999 0.24095 1.373516 -1.801521
2008-01-30 07:58:29 51°13.664 2°55.921 -999 0.24095 1.373652 -1.801521
2008-01-30 07:58:34 51°13.665 2°55.916 -999 0.24095 1.373652 -1.801521
2008-01-30 07:58:39 51°13.666 2°55.909 -999 0.240847 1.373088 -1.801521
2008-01-30 07:58:44 51°13.668 2°55.902 -999 0.240847 1.373116 -1.801521
2008-01-30 07:58:49 51°13.669 2°55.895 -999 0.240847 1.373088 -1.801521
2008-01-30 07:58:54 51°13.671 2°55.887 -999 0.240847 1.373034 -1.801521
2008-01-30 07:58:59 51°13.673 2°55.878 -999 0.240847 1.373006 -1.801521
2008-01-30 07:59:04 51°13.674 2°55.87 -999 0.240847 1.373006 -1.801521
2008-01-30 07:59:09 51°13.676 2°55.861 -999 0.240847 1.373006 -1.766697
2008-01-30 07:59:14 51°13.678 2°55.852 -999 0.240847 1.373034 -1.801521
2008-01-30 07:59:19 51°13.68 2°55.842 -999 0.240744 1.372388 -1.801521
2008-01-30 07:59:24 51°13.682 2°55.833 -999 0.240744 1.372388 -1.801521
2008-01-30 07:59:29 51°13.684 2°55.823 -999 0.240847 1.373034 -1.801521
2008-01-30 07:59:34 51°13.687 2°55.813 -999 0.241362 1.376182 -1.801521
2008-01-30 07:59:39 51°13.689 2°55.803 -999 0.241362 1.376182 -1.801521
2008-01-30 07:59:44 51°13.691 2°55.793 -999 0.241362 1.376237 -1.801521
2008-01-30 07:59:49 51°13.694 2°55.783 -999 0.241362 1.376292 -1.801521
2008-01-30 07:59:54 51°13.696 2°55.772 -999 0.241259 1.375673 -1.766697
2008-01-30 07:59:59 51°13.698 2°55.762 -999 0.241259 1.375646 -1.766697
2008-01-30 08:00:04 51°13.7 2°55.753 -999 0.241259 1.375646 -1.766697
2008-01-30 08:00:09 51°13.702 2°55.744 -999 0.241259 1.375591 -1.801521
2008-01-30 08:00:14 51°13.703 2°55.737 -999 0.241156 1.37489 -1.801521
2008-01-30 08:00:19 51°13.704 2°55.732 -999 0.241156 1.374835 -1.801521
2008-01-30 08:00:24 51°13.704 2°55.729 -999 0.241156 1.374808 -1.766697
2008-01-30 08:00:29 51°13.704 2°55.728 -999 0.241053 1.374216 -1.801521
2008-01-30 08:00:34 51°13.704 2°55.729 -999 0.241053 1.374216 -1.801521
2008-01-30 08:00:39 51°13.703 2°55.732 -999 0.241053 1.374244 -1.801521
2008-01-30 08:00:44 51°13.702 2°55.736 -999 0.241053 1.374408 -1.801521
2008-01-30 08:00:49 51°13.703 2°55.739 -999 0.241053 1.374545 -1.801521
2008-01-30 08:00:54 51°13.702 2°55.741 -999 0.241053 1.374517 -1.801521
2008-01-30 08:00:59 51°13.702 2°55.743 -999 0.241053 1.37449 -1.801521
2008-01-30 08:01:04 51°13.701 2°55.743 -999 0.241053 1.37449 -1.801521
2008-01-30 08:01:09 51°13.701 2°55.742 -999 0.24095 1.373871 -1.801521
2008-01-30 08:01:14 51°13.699 2°55.74 -999 0.24095 1.373844 -1.801521
2008-01-30 08:01:19 51°13.698 2°55.736 -999 0.24095 1.373844 -1.766697
2008-01-30 08:01:24 51°13.697 2°55.733 -999 0.24095 1.373789 -1.801521
2008-01-30 08:01:29 51°13.696 2°55.73 -999 0.24095 1.373817 -1.801521
2008-01-30 08:01:34 51°13.695 2°55.728 -999 0.24095 1.373817 -1.801521
2008-01-30 08:01:39 51°13.694 2°55.728 -999 0.24095 1.373817 -1.801521
2008-01-30 08:01:44 51°13.694 2°55.729 -999 0.24095 1.373871 -1.801521
2008-01-30 08:01:49 51°13.695 2°55.732 -999 0.240847 1.373252 -1.801521
2008-01-30 08:01:54 51°13.696 2°55.737 -999 0.24095 1.373899 -1.801521
2008-01-30 08:01:59 51°13.698 2°55.741 -999 0.24095 1.373953 -1.766697
2008-01-30 08:02:04 51°13.699 2°55.745 -999 0.24095 1.373953 -1.766697
2008-01-30 08:02:09 51°13.701 2°55.748 -999 0.240847 1.373417 -1.801521
2008-01-30 08:02:14 51°13.703 2°55.751 -999 0.24095 1.374035 -1.801521
2008-01-30 08:02:19 51°13.703 2°55.753 -999 0.240847 1.373417 -1.801521
2008-01-30 08:02:24 51°13.703 2°55.755 -999 0.240847 1.373389 -1.801521
2008-01-30 08:02:29 51°13.703 2°55.755 -999 0.240847 1.373362 -1.801521
2008-01-30 08:02:34 51°13.701 2°55.755 -999 0.240847 1.373362 -1.801521
2008-01-30 08:02:39 51°13.698 2°55.754 -999 0.240847 1.373307 -1.801521
2008-01-30 08:02:44 51°13.695 2°55.752 -999 0.240847 1.373307 -1.801521
2008-01-30 08:02:49 51°13.693 2°55.751 -999 0.240847 1.373307 -1.766697
2008-01-30 08:02:54 51°13.69 2°55.749 -999 0.240847 1.373362 -1.801521
2008-01-30 08:02:59 51°13.688 2°55.749 -999 0.240847 1.373417 -1.801521
2008-01-30 08:03:04 51°13.687 2°55.749 -999 0.240847 1.373417 -1.801521
2008-01-30 08:03:09 51°13.688 2°55.75 -999 0.240847 1.373444 -1.801521
2008-01-30 08:03:14 51°13.689 2°55.752 -999 0.240847 1.373444 -1.801521
2008-01-30 08:03:19 51°13.691 2°55.754 -999 0.240847 1.373444 -1.801521
2008-01-30 08:03:24 51°13.695 2°55.756 -999 0.240847 1.373444 -1.801521
2008-01-30 08:03:29 51°13.699 2°55.757 -999 0.240847 1.373444 -1.801521
2008-01-30 08:03:34 51°13.704 2°55.757 -999 0.240847 1.373444 -1.801521
2008-01-30 08:03:39 51°13.709 2°55.755 -999 0.240847 1.373471 -1.801521
2008-01-30 08:03:44 51°13.715 2°55.752 -999 0.240847 1.373499 -1.801521
2008-01-30 08:03:49 51°13.721 2°55.746 -999 0.240847 1.373526 -1.801521
2008-01-30 08:03:54 51°13.727 2°55.74 -999 0.240847 1.373471 -1.801521
2008-01-30 08:03:59 51°13.733 2°55.733 -999 0.240847 1.373417 -1.801521
2008-01-30 08:04:04 51°13.739 2°55.726 -999 0.240847 1.373417 -1.801521
2008-01-30 08:04:09 51°13.745 2°55.719 -999 0.240847 1.373334 -1.801521
2008-01-30 08:04:14 51°13.751 2°55.712 -999 0.240847 1.373334 -1.766697
2008-01-30 08:04:19 51°13.757 2°55.705 -999 0.240847 1.373389 -1.801521
2008-01-30 08:04:24 51°13.763 2°55.699 -999 0.240847 1.373444 -1.801521
2008-01-30 08:04:29 51°13.769 2°55.692 -999 0.240847 1.373499 -1.801521
2008-01-30 08:04:34 51°13.774 2°55.686 -999 0.240847 1.373499 -1.801521
2008-01-30 08:04:39 51°13.78 2°55.68 -999 0.240847 1.373553 -1.801521
2008-01-30 08:04:44 51°13.786 2°55.674 -999 0.240847 1.373526 -1.801521
2008-01-30 08:04:49 51°13.793 2°55.668 -999 0.240847 1.373499 -1.801521
2008-01-30 08:04:54 51°13.799 2°55.662 -999 0.240847 1.373471 -1.801521
2008-01-30 08:04:59 51°13.805 2°55.657 -999 0.240847 1.373471 -1.801521
2008-01-30 08:05:04 51°13.812 2°55.651 -999 0.240847 1.373471 -1.801521
2008-01-30 08:05:09 51°13.82 2°55.645 -999 0.240847 1.373444 -1.801521
2008-01-30 08:05:14 51°13.827 2°55.639 -999 0.240847 1.373444 -1.801521
2008-01-30 08:05:19 51°13.835 2°55.633 -999 0.240847 1.373471 -1.801521
2008-01-30 08:05:24 51°13.844 2°55.627 -999 0.240847 1.373471 -1.801521
2008-01-30 08:05:29 51°13.852 2°55.62 -999 0.240847 1.373444 -1.801521
2008-01-30 08:05:34 51°13.861 2°55.613 -999 0.240847 1.373444 -1.801521
2008-01-30 08:05:39 51°13.87 2°55.606 -999 0.240847 1.373444 -1.801521
2008-01-30 08:05:44 51°13.879 2°55.599 -999 0.240847 1.373471 -1.801521
2008-01-30 08:05:49 51°13.888 2°55.593 -999 0.240847 1.373499 -1.801521
2008-01-30 08:05:54 51°13.898 2°55.586 -999 0.240847 1.373526 -1.801521
2008-01-30 08:05:59 51°13.908 2°55.579 -999 0.240847 1.373581 -1.801521
2008-01-30 08:06:04 51°13.917 2°55.572 -999 0.240847 1.373581 -1.801521
2008-01-30 08:06:09 51°13.927 2°55.565 -999 0.240847 1.373553 -1.801521
2008-01-30 08:06:14 51°13.937 2°55.557 -999 0.240847 1.373581 -1.801521
2008-01-30 08:06:19 51°13.947 2°55.55 -999 0.240847 1.373526 -1.801521
2008-01-30 08:06:24 51°13.957 2°55.542 -999 0.240847 1.373526 -1.766697
2008-01-30 08:06:29 51°13.968 2°55.535 -999 0.240847 1.373553 -1.801521
2008-01-30 08:06:34 51°13.978 2°55.527 -999 0.240847 1.373553 -1.801521
2008-01-30 08:06:39 51°13.988 2°55.519 -999 0.240847 1.373581 -1.801521
2008-01-30 08:06:44 51°13.999 2°55.512 -999 0.240847 1.373663 -1.801521
2008-01-30 08:06:49 51°14.009 2°55.504 -999 0.240847 1.373718 -1.801521
2008-01-30 08:06:54 51°14.02 2°55.496 -999 0.240847 1.373718 -1.801521
2008-01-30 08:06:59 51°14.03 2°55.489 -999 0.240847 1.373718 -1.766697
2008-01-30 08:07:04 51°14.041 2°55.481 -999 0.240847 1.373718 -1.766697
2008-01-30 08:07:09 51°14.051 2°55.474 -999 0.240847 1.373718 -1.801521
2008-01-30 08:07:14 51°14.061 2°55.466 -999 0.240847 1.373718 -1.801521
2008-01-30 08:07:19 51°14.072 2°55.458 -999 0.240847 1.373772 -1.801521
2008-01-30 08:07:24 51°14.082 2°55.45 -999 0.240847 1.3738 -1.766697
2008-01-30 08:07:29 51°14.092 2°55.442 -999 0.240847 1.373827 -1.801521
2008-01-30 08:07:34 51°14.102 2°55.434 -999 0.240847 1.373827 -1.801521
2008-01-30 08:07:39 51°14.112 2°55.426 -999 0.240847 1.373854 -1.801521
2008-01-30 08:07:44 51°14.123 2°55.419 -999 0.240847 1.373854 -1.801521
2008-01-30 08:07:49 51°14.133 2°55.411 -999 0.240847 1.373882 -1.801521
2008-01-30 08:07:54 51°14.143 2°55.403 -999 0.240847 1.373882 -1.801521
2008-01-30 08:07:59 51°14.153 2°55.395 -999 0.240744 1.37329 -1.801521
2008-01-30 08:08:04 51°14.163 2°55.386 -999 0.240744 1.37329 -1.801521
2008-01-30 08:08:09 51°14.172 2°55.377 -999 0.240847 1.373937 -1.801521
2008-01-30 08:08:14 51°14.182 2°55.367 -999 0.240847 1.373964 -1.801521
2008-01-30 08:08:19 51°14.192 2°55.355 -999 0.240847 1.373937 -1.801521
2008-01-30 08:08:24 51°14.201 2°55.344 -999 0.240744 1.3734 -1.801521
2008-01-30 08:08:29 51°14.211 2°55.331 -999 0.240744 1.373454 -1.801521
2008-01-30 08:08:34 51°14.22 2°55.316 -999 0.240744 1.373454 -1.801521
2008-01-30 08:08:39 51°14.229 2°55.302 -999 0.240744 1.373619 -1.801521
2008-01-30 08:08:44 51°14.239 2°55.286 -999 0.240744 1.373591 -1.801521
2008-01-30 08:08:49 51°14.249 2°55.27 -999 0.240744 1.373454 -1.801521
2008-01-30 08:08:54 51°14.258 2°55.254 -999 0.240744 1.37329 -1.801521
2008-01-30 08:08:59 51°14.268 2°55.237 -999 0.240744 1.373235 -1.801521
2008-01-30 08:09:04 51°14.277 2°55.218 -999 0.240744 1.373235 -1.801521
2008-01-30 08:09:09 51°14.286 2°55.2 -999 0.240744 1.373263 -1.801521
2008-01-30 08:09:14 51°14.295 2°55.182 -999 0.240744 1.373345 -1.801521
2008-01-30 08:09:19 51°14.304 2°55.163 -999 0.240744 1.373482 -1.801521
2008-01-30 08:09:24 51°14.313 2°55.143 -999 0.240744 1.373564 -1.801521
2008-01-30 08:09:29 51°14.321 2°55.124 -999 0.240744 1.373564 -1.801521
2008-01-30 08:09:34 51°14.33 2°55.104 -999 0.240744 1.373564 -1.801521
2008-01-30 08:09:39 51°14.338 2°55.084 -999 0.240744 1.373591 -1.801521
2008-01-30 08:09:44 51°14.346 2°55.064 -999 0.240744 1.373537 -1.801521
2008-01-30 08:09:49 51°14.354 2°55.043 -999 0.240744 1.373509 -1.801521
2008-01-30 08:09:54 51°14.362 2°55.022 -999 0.240744 1.373427 -1.801521
2008-01-30 08:09:59 51°14.37 2°55.001 -999 0.240641 1.372917 -1.801521
2008-01-30 08:10:04 51°14.377 2°54.979 -999 0.240641 1.372917 -1.801521
2008-01-30 08:10:09 51°14.385 2°54.958 -999 0.240744 1.373509 -1.801521
2008-01-30 08:10:14 51°14.392 2°54.936 -999 0.240744 1.373591 -1.801521
2008-01-30 08:10:19 51°14.398 2°54.914 -999 0.240641 1.373027 -1.801521
2008-01-30 08:10:24 51°14.405 2°54.892 -999 0.240744 1.373619 -1.801521
2008-01-30 08:10:29 51°14.412 2°54.87 -999 0.240641 1.372917 -1.801521
2008-01-30 08:10:34 51°14.418 2°54.847 -999 0.240641 1.372917 -1.801521
2008-01-30 08:10:39 51°14.424 2°54.824 -999 0.240641 1.372945 -1.801521
2008-01-30 08:10:44 51°14.431 2°54.801 -999 0.240744 1.373537 -1.766697
2008-01-30 08:10:49 51°14.437 2°54.777 -999 0.240641 1.372972 -1.801521
2008-01-30 08:10:54 51°14.443 2°54.754 -999 0.240744 1.373646 -1.801521
2008-01-30 08:10:59 51°14.451 2°54.731 -999 0.240641 1.373082 -1.801521
2008-01-30 08:11:04 51°14.459 2°54.708 -999 0.240641 1.373082 -1.801521
2008-01-30 08:11:09 51°14.468 2°54.687 -999 0.240641 1.373027 -1.801521
2008-01-30 08:11:14 51°14.477 2°54.666 -999 0.240641 1.372999 -1.801521
2008-01-30 08:11:19 51°14.488 2°54.647 -999 0.240641 1.372945 -1.766697
2008-01-30 08:11:24 51°14.499 2°54.63 -999 0.240641 1.372945 -1.801521
2008-01-30 08:11:29 51°14.511 2°54.612 -999 0.240641 1.372999 -1.801521
2008-01-30 08:11:34 51°14.523 2°54.596 -999 0.240641 1.372999 -1.801521
2008-01-30 08:11:39 51°14.536 2°54.581 -999 0.240641 1.373054 -1.801521
2008-01-30 08:11:44 51°14.55 2°54.569 -999 0.240641 1.373054 -1.801521
2008-01-30 08:11:49 51°14.564 2°54.558 -999 0.240641 1.373082 -1.801521
2008-01-30 08:11:54 51°14.579 2°54.548 -999 0.240641 1.373136 -1.801521
2008-01-30 08:11:59 51°14.593 2°54.537 -999 0.240744 1.373893 -1.801521
2008-01-30 08:12:04 51°14.607 2°54.527 -999 0.240641 1.373218 -1.801521
2008-01-30 08:12:09 51°14.621 2°54.515 -999 0.240641 1.373218 -1.801521
2008-01-30 08:12:14 51°14.635 2°54.504 -999 0.240641 1.373109 -1.801521
2008-01-30 08:12:19 51°14.649 2°54.492 -999 0.240641 1.373082 -1.801521
2008-01-30 08:12:24 51°14.663 2°54.481 -999 0.240744 1.373728 -1.801521
2008-01-30 08:12:29 51°14.677 2°54.469 -999 0.240538 1.372572 -1.801521
2008-01-30 08:12:34 51°14.691 2°54.457 -999 0.240538 1.372572 -1.801521
2008-01-30 08:12:39 51°14.705 2°54.446 -999 0.240641 1.373218 -1.801521
2008-01-30 08:12:44 51°14.719 2°54.434 -999 0.240538 1.372681 -1.801521
2008-01-30 08:12:49 51°14.733 2°54.422 -999 0.240641 1.373301 -1.801521
2008-01-30 08:12:54 51°14.747 2°54.41 -999 0.240641 1.373301 -1.801521
2008-01-30 08:12:59 51°14.761 2°54.399 -999 0.240641 1.373273 -1.801521
2008-01-30 08:13:04 51°14.775 2°54.389 -999 0.240641 1.373273 -1.801521
2008-01-30 08:13:09 51°14.789 2°54.378 -999 0.240538 1.372709 -1.801521
2008-01-30 08:13:14 51°14.803 2°54.367 -999 0.240641 1.373355 -1.801521
2008-01-30 08:13:19 51°14.817 2°54.355 -999 0.240641 1.373328 -1.801521
2008-01-30 08:13:24 51°14.831 2°54.343 -999 0.240641 1.373301 -1.801521
2008-01-30 08:13:29 51°14.844 2°54.332 -999 0.240538 1.372709 -1.801521
2008-01-30 08:13:34 51°14.859 2°54.32 -999 0.240538 1.372709 -1.801521
2008-01-30 08:13:39 51°14.872 2°54.309 -999 0.240538 1.372736 -1.801521
2008-01-30 08:13:44 51°14.886 2°54.297 -999 0.240538 1.372681 -1.801521
2008-01-30 08:13:49 51°14.901 2°54.286 -999 0.240538 1.372736 -1.801521
2008-01-30 08:13:54 51°14.915 2°54.276 -999 0.240538 1.372763 -1.801521
2008-01-30 08:13:59 51°14.929 2°54.265 -999 0.240641 1.373355 -1.766697
2008-01-30 08:14:04 51°14.942 2°54.254 -999 0.240641 1.373355 -1.766697
2008-01-30 08:14:09 51°14.956 2°54.243 -999 0.240538 1.372763 -1.801521
2008-01-30 08:14:14 51°14.97 2°54.231 -999 0.240538 1.372763 -1.801521
2008-01-30 08:14:19 51°14.984 2°54.219 -999 0.240538 1.372763 -1.801521
2008-01-30 08:14:24 51°14.998 2°54.208 -999 0.240641 1.373355 -1.801521
2008-01-30 08:14:29 51°15.012 2°54.197 -999 0.240538 1.372763 -1.801521
2008-01-30 08:14:34 51°15.026 2°54.185 -999 0.240538 1.372763 -1.801521
2008-01-30 08:14:39 51°15.041 2°54.174 -999 0.240538 1.372818 -1.801521
2008-01-30 08:14:44 51°15.055 2°54.162 -999 0.240538 1.372818 -1.801521
2008-01-30 08:14:49 51°15.069 2°54.15 -999 0.240538 1.372846 -1.801521
2008-01-30 08:14:54 51°15.084 2°54.138 -999 0.240436 1.372226 -1.801521
2008-01-30 08:14:59 51°15.098 2°54.126 -999 0.240538 1.372873 -1.801521
2008-01-30 08:15:04 51°15.112 2°54.114 -999 0.240538 1.372873 -1.801521
2008-01-30 08:15:09 51°15.127 2°54.102 -999 0.240538 1.3729 -1.801521
2008-01-30 08:15:14 51°15.141 2°54.09 -999 0.240538 1.3729 -1.766697
2008-01-30 08:15:19 51°15.155 2°54.078 -999 0.240538 1.3729 -1.801521
2008-01-30 08:15:24 51°15.169 2°54.066 -999 0.240436 1.372281 -1.801521
2008-01-30 08:15:29 51°15.182 2°54.055 -999 0.240436 1.372281 -1.801521
2008-01-30 08:15:34 51°15.196 2°54.044 -999 0.240436 1.372281 -1.801521
2008-01-30 08:15:39 51°15.21 2°54.033 -999 0.240538 1.372928 -1.801521
2008-01-30 08:15:44 51°15.223 2°54.02 -999 0.240436 1.372336 -1.801521
2008-01-30 08:15:49 51°15.237 2°54.009 -999 0.240436 1.372281 -1.801521
2008-01-30 08:15:54 51°15.251 2°53.997 -999 0.240436 1.372281 -1.801521
2008-01-30 08:15:59 51°15.264 2°53.985 -999 0.240436 1.372253 -1.801521
2008-01-30 08:16:04 51°15.278 2°53.972 -999 0.240436 1.372253 -1.801521
2008-01-30 08:16:09 51°15.291 2°53.96 -999 0.240538 1.3729 -1.801521
2008-01-30 08:16:14 51°15.304 2°53.949 -999 0.240436 1.372308 -1.801521
2008-01-30 08:16:19 51°15.318 2°53.938 -999 0.240538 1.372982 -1.801521
2008-01-30 08:16:24 51°15.332 2°53.926 -999 0.240333 1.371716 -1.801521
2008-01-30 08:16:29 51°15.345 2°53.915 -999 0.240538 1.37301 -1.801521
2008-01-30 08:16:34 51°15.359 2°53.904 -999 0.240538 1.37301 -1.801521
2008-01-30 08:16:39 51°15.372 2°53.893 -999 0.240436 1.372336 -1.766697
2008-01-30 08:16:44 51°15.385 2°53.881 -999 0.240333 1.371743 -1.801521
2008-01-30 08:16:49 51°15.399 2°53.869 -999 0.240436 1.372308 -1.801521
2008-01-30 08:16:54 51°15.412 2°53.857 -999 0.240436 1.372336 -1.801521
2008-01-30 08:16:59 51°15.426 2°53.845 -999 0.240436 1.372336 -1.801521
2008-01-30 08:17:04 51°15.44 2°53.834 -999 0.240436 1.372336 -1.801521
2008-01-30 08:17:09 51°15.454 2°53.822 -999 0.240436 1.37239 -1.801521
2008-01-30 08:17:14 51°15.468 2°53.811 -999 0.240333 1.371798 -1.801521
2008-01-30 08:17:19 51°15.482 2°53.798 -999 0.240436 1.372418 -1.801521
2008-01-30 08:17:24 51°15.496 2°53.786 -999 0.240436 1.372418 -1.801521
2008-01-30 08:17:29 51°15.511 2°53.774 -999 0.240333 1.371771 -1.801521
2008-01-30 08:17:34 51°15.525 2°53.762 -999 0.240436 1.372418 -1.801521
2008-01-30 08:17:39 51°15.54 2°53.751 -999 0.240436 1.372418 -1.801521
2008-01-30 08:17:44 51°15.554 2°53.739 -999 0.240436 1.372445 -1.766697
2008-01-30 08:17:49 51°15.567 2°53.726 -999 0.240333 1.371853 -1.801521
2008-01-30 08:17:54 51°15.582 2°53.714 -999 0.240333 1.371853 -1.801521
2008-01-30 08:17:59 51°15.596 2°53.702 -999 0.240333 1.371853 -1.801521
2008-01-30 08:18:04 51°15.61 2°53.691 -999 0.240333 1.371853 -1.801521
2008-01-30 08:18:09 51°15.624 2°53.679 -999 0.240333 1.371853 -1.801521
2008-01-30 08:18:14 51°15.638 2°53.667 -999 0.240333 1.371908 -1.801521
2008-01-30 08:18:19 51°15.652 2°53.655 -999 0.240333 1.371908 -1.801521
2008-01-30 08:18:24 51°15.666 2°53.643 -999 0.240436 1.372527 -1.766697
2008-01-30 08:18:29 51°15.68 2°53.631 -999 0.240333 1.371908 -1.801521
2008-01-30 08:18:34 51°15.694 2°53.619 -999 0.240333 1.371908 -1.801521
2008-01-30 08:18:39 51°15.708 2°53.607 -999 0.240333 1.371908 -1.801521
2008-01-30 08:18:44 51°15.722 2°53.596 -999 0.240333 1.371908 -1.801521
2008-01-30 08:18:49 51°15.736 2°53.584 -999 0.240333 1.371962 -1.801521
2008-01-30 08:18:54 51°15.75 2°53.573 -999 0.240333 1.371935 -1.801521
2008-01-30 08:18:59 51°15.764 2°53.562 -999 0.240333 1.371962 -1.801521
2008-01-30 08:19:04 51°15.777 2°53.55 -999 0.240333 1.371962 -1.801521
2008-01-30 08:19:09 51°15.792 2°53.539 -999 0.240333 1.371962 -1.801521
2008-01-30 08:19:14 51°15.805 2°53.527 -999 0.24023 1.371343 -1.801521
2008-01-30 08:19:19 51°15.819 2°53.516 -999 0.240436 1.372582 -1.801521
2008-01-30 08:19:24 51°15.833 2°53.504 -999 0.240127 1.370723 -1.801521
2008-01-30 08:19:29 51°15.846 2°53.493 -999 0.24023 1.371343 -1.801521
2008-01-30 08:19:34 51°15.86 2°53.483 -999 0.24023 1.371343 -1.801521
2008-01-30 08:19:39 51°15.874 2°53.473 -999 0.240436 1.372609 -1.801521
2008-01-30 08:19:44 51°15.887 2°53.462 -999 0.24023 1.371343 -1.801521
2008-01-30 08:19:49 51°15.9 2°53.45 -999 0.240333 1.37199 -1.801521
2008-01-30 08:19:54 51°15.914 2°53.439 -999 0.24023 1.371343 -1.766697
2008-01-30 08:19:59 51°15.928 2°53.427 -999 0.24023 1.371343 -1.801521
2008-01-30 08:20:04 51°15.942 2°53.416 -999 0.24023 1.371343 -1.801521
2008-01-30 08:20:09 51°15.955 2°53.405 -999 0.240333 1.371962 -1.801521
2008-01-30 08:20:14 51°15.969 2°53.394 -999 0.240127 1.370696 -1.801521
2008-01-30 08:20:19 51°15.982 2°53.382 -999 0.240333 1.372017 -1.801521
2008-01-30 08:20:24 51°15.996 2°53.372 -999 0.240127 1.370805 -1.801521
2008-01-30 08:20:29 51°16.01 2°53.36 -999 0.24023 1.371398 -1.801521
2008-01-30 08:20:34 51°16.024 2°53.349 -999 0.24023 1.371398 -1.801521
2008-01-30 08:20:39 51°16.038 2°53.338 -999 0.24023 1.371452 -1.801521
2008-01-30 08:20:44 51°16.053 2°53.327 -999 0.240127 1.370833 -1.801521
2008-01-30 08:20:49 51°16.067 2°53.315 -999 0.24023 1.371398 -1.801521
2008-01-30 08:20:54 51°16.081 2°53.304 -999 0.240333 1.372072 -1.801521
2008-01-30 08:20:59 51°16.095 2°53.292 -999 0.240127 1.370833 -1.801521
2008-01-30 08:21:04 51°16.109 2°53.28 -999 0.24023 1.371452 -1.801521
2008-01-30 08:21:09 51°16.124 2°53.268 -999 0.24023 1.371452 -1.801521
2008-01-30 08:21:14 51°16.138 2°53.257 -999 0.240127 1.37086 -1.801521
2008-01-30 08:21:19 51°16.152 2°53.245 -999 0.24023 1.371534 -1.801521
2008-01-30 08:21:24 51°16.166 2°53.233 -999 0.240127 1.370915 -1.801521
2008-01-30 08:21:29 51°16.18 2°53.221 -999 0.24023 1.371507 -1.801521
2008-01-30 08:21:34 51°16.195 2°53.21 -999 0.24023 1.371507 -1.801521
2008-01-30 08:21:39 51°16.209 2°53.199 -999 0.240127 1.37086 -1.801521
2008-01-30 08:21:44 51°16.224 2°53.187 -999 0.24023 1.37148 -1.801521
2008-01-30 08:21:49 51°16.238 2°53.175 -999 0.240127 1.37086 -1.801521
2008-01-30 08:21:54 51°16.252 2°53.163 -999 0.24023 1.371534 -1.801521
2008-01-30 08:21:59 51°16.266 2°53.152 -999 0.24023 1.371507 -1.766697
2008-01-30 08:22:04 51°16.28 2°53.141 -999 0.24023 1.371507 -1.766697
2008-01-30 08:22:09 51°16.294 2°53.13 -999 0.240127 1.370942 -1.801521
2008-01-30 08:22:14 51°16.308 2°53.118 -999 0.24023 1.371534 -1.801521
2008-01-30 08:22:19 51°16.322 2°53.108 -999 0.240127 1.370915 -1.801521
2008-01-30 08:22:24 51°16.336 2°53.097 -999 0.240127 1.370915 -1.801521
2008-01-30 08:22:29 51°16.35 2°53.086 -999 0.24023 1.371534 -1.801521
2008-01-30 08:22:34 51°16.364 2°53.075 -999 0.24023 1.371534 -1.801521
2008-01-30 08:22:39 51°16.378 2°53.064 -999 0.240127 1.370915 -1.801521
2008-01-30 08:22:44 51°16.392 2°53.052 -999 0.240127 1.37086 -1.801521
2008-01-30 08:22:49 51°16.406 2°53.041 -999 0.240127 1.370887 -1.766697
2008-01-30 08:22:54 51°16.421 2°53.029 -999 0.240024 1.370295 -1.801521
2008-01-30 08:22:59 51°16.435 2°53.017 -999 0.24023 1.371534 -1.766697
2008-01-30 08:23:04 51°16.449 2°53.006 -999 0.24023 1.371534 -1.766697
2008-01-30 08:23:09 51°16.464 2°52.995 -999 0.240024 1.370295 -1.801521
2008-01-30 08:23:14 51°16.478 2°52.984 -999 0.24023 1.371589 -1.801521
2008-01-30 08:23:19 51°16.492 2°52.973 -999 0.240024 1.37035 -1.801521
2008-01-30 08:23:24 51°16.505 2°52.962 -999 0.240127 1.370969 -1.801521
2008-01-30 08:23:29 51°16.52 2°52.95 -999 0.240127 1.370915 -1.801521
2008-01-30 08:23:34 51°16.533 2°52.939 -999 0.240127 1.370915 -1.801521
2008-01-30 08:23:39 51°16.548 2°52.928 -999 0.240024 1.370268 -1.801521
2008-01-30 08:23:44 51°16.562 2°52.917 -999 0.240127 1.370969 -1.801521
2008-01-30 08:23:49 51°16.576 2°52.906 -999 0.240024 1.370295 -1.801521
2008-01-30 08:23:54 51°16.59 2°52.895 -999 0.240127 1.370942 -1.766697
2008-01-30 08:23:59 51°16.605 2°52.884 -999 0.240024 1.370323 -1.801521
2008-01-30 08:24:04 51°16.619 2°52.874 -999 0.240024 1.370323 -1.801521
2008-01-30 08:24:09 51°16.634 2°52.864 -999 0.240127 1.370942 -1.801521
2008-01-30 08:24:14 51°16.649 2°52.854 -999 0.240024 1.370377 -1.801521
2008-01-30 08:24:19 51°16.663 2°52.845 -999 0.240024 1.370377 -1.801521
2008-01-30 08:24:24 51°16.678 2°52.837 -999 0.240024 1.370377 -1.801521
2008-01-30 08:24:29 51°16.692 2°52.829 -999 0.240024 1.370377 -1.801521
2008-01-30 08:24:34 51°16.707 2°52.819 -999 0.240024 1.370405 -1.801521
2008-01-30 08:24:39 51°16.721 2°52.81 -999 0.240024 1.370405 -1.801521
2008-01-30 08:24:44 51°16.736 2°52.801 -999 0.240024 1.370377 -1.766697
2008-01-30 08:24:49 51°16.75 2°52.791 -999 0.240024 1.370377 -1.801521
2008-01-30 08:24:54 51°16.765 2°52.781 -999 0.240024 1.370405 -1.801521
2008-01-30 08:24:59 51°16.78 2°52.771 -999 0.240024 1.370377 -1.801521
2008-01-30 08:25:04 51°16.794 2°52.761 -999 0.240024 1.370377 -1.801521
2008-01-30 08:25:09 51°16.809 2°52.752 -999 0.239921 1.369758 -1.801521
2008-01-30 08:25:14 51°16.824 2°52.743 -999 0.240127 1.370997 -1.766697
2008-01-30 08:25:19 51°16.839 2°52.735 -999 0.240024 1.370432 -1.801521
2008-01-30 08:25:24 51°16.854 2°52.726 -999 0.240024 1.370405 -1.801521
2008-01-30 08:25:29 51°16.869 2°52.718 -999 0.240024 1.370432 -1.801521
2008-01-30 08:25:34 51°16.885 2°52.71 -999 0.240024 1.370432 -1.801521
2008-01-30 08:25:39 51°16.9 2°52.701 -999 0.240024 1.370432 -1.801521
2008-01-30 08:25:44 51°16.915 2°52.693 -999 0.239921 1.369812 -1.801521
2008-01-30 08:25:49 51°16.93 2°52.686 -999 0.240024 1.370432 -1.801521
2008-01-30 08:25:54 51°16.946 2°52.678 -999 0.239921 1.36984 -1.801521
2008-01-30 08:25:59 51°16.961 2°52.669 -999 0.240024 1.370405 -1.801521
2008-01-30 08:26:04 51°16.977 2°52.663 -999 0.240024 1.370405 -1.801521
2008-01-30 08:26:09 51°16.992 2°52.655 -999 0.239921 1.369812 -1.801521
2008-01-30 08:26:14 51°17.008 2°52.649 -999 0.239921 1.369785 -1.801521
2008-01-30 08:26:19 51°17.024 2°52.642 -999 0.239921 1.369867 -1.801521
2008-01-30 08:26:24 51°17.039 2°52.637 -999 0.239921 1.36984 -1.801521
2008-01-30 08:26:29 51°17.055 2°52.631 -999 0.240024 1.370514 -1.801521
2008-01-30 08:26:34 51°17.071 2°52.624 -999 0.239921 1.369867 -1.766697
2008-01-30 08:26:39 51°17.087 2°52.618 -999 0.239921 1.369867 -1.766697
2008-01-30 08:26:44 51°17.102 2°52.611 -999 0.239921 1.36984 -1.801521
2008-01-30 08:26:49 51°17.118 2°52.606 -999 0.239921 1.369812 -1.801521
2008-01-30 08:26:54 51°17.134 2°52.6 -999 0.239921 1.36984 -1.801521
2008-01-30 08:26:59 51°17.15 2°52.595 -999 0.239921 1.369867 -1.801521
2008-01-30 08:27:04 51°17.166 2°52.589 -999 0.239921 1.369867 -1.801521
2008-01-30 08:27:09 51°17.181 2°52.583 -999 0.240024 1.370487 -1.801521
2008-01-30 08:27:14 51°17.197 2°52.578 -999 0.239818 1.369275 -1.801521
2008-01-30 08:27:19 51°17.213 2°52.573 -999 0.240024 1.370514 -1.801521
2008-01-30 08:27:24 51°17.228 2°52.569 -999 0.239818 1.369275 -1.801521
2008-01-30 08:27:29 51°17.244 2°52.564 -999 0.239921 1.369894 -1.801521
2008-01-30 08:27:34 51°17.259 2°52.559 -999 0.239921 1.369894 -1.801521
2008-01-30 08:27:39 51°17.275 2°52.554 -999 0.239818 1.369275 -1.801521
2008-01-30 08:27:44 51°17.291 2°52.55 -999 0.239921 1.369894 -1.801521
2008-01-30 08:27:49 51°17.307 2°52.545 -999 0.239921 1.369894 -1.801521
2008-01-30 08:27:54 51°17.322 2°52.541 -999 0.239818 1.369329 -1.801521
2008-01-30 08:27:59 51°17.338 2°52.536 -999 0.239818 1.369329 -1.801521
2008-01-30 08:28:04 51°17.353 2°52.533 -999 0.239921 1.369949 -1.801521
2008-01-30 08:28:09 51°17.369 2°52.533 -999 0.239921 1.369949 -1.801521
2008-01-30 08:28:14 51°17.384 2°52.531 -999 0.239818 1.369548 -1.766697
2008-01-30 08:28:19 51°17.399 2°52.529 -999 0.239921 1.370222 -1.801521
2008-01-30 08:28:24 51°17.415 2°52.527 -999 0.239921 1.370195 -1.801521
2008-01-30 08:28:29 51°17.43 2°52.525 -999 0.239818 1.369493 -1.766697
2008-01-30 08:28:34 51°17.445 2°52.524 -999 0.239818 1.369493 -1.766697
2008-01-30 08:28:39 51°17.461 2°52.523 -999 0.239921 1.369949 -1.801521
2008-01-30 08:28:44 51°17.477 2°52.521 -999 0.239921 1.369949 -1.801521
2008-01-30 08:28:49 51°17.493 2°52.519 -999 0.239818 1.369275 -1.801521
2008-01-30 08:28:54 51°17.508 2°52.518 -999 0.239921 1.369976 -1.801521
2008-01-30 08:28:59 51°17.524 2°52.517 -999 0.239818 1.369384 -1.801521
2008-01-30 08:29:04 51°17.54 2°52.515 -999 0.239818 1.369384 -1.801521
2008-01-30 08:29:09 51°17.556 2°52.513 -999 0.239818 1.369411 -1.801521
2008-01-30 08:29:14 51°17.572 2°52.512 -999 0.239818 1.369357 -1.801521
2008-01-30 08:29:19 51°17.588 2°52.51 -999 0.239818 1.369411 -1.801521
2008-01-30 08:29:24 51°17.605 2°52.509 -999 0.239818 1.369384 -1.801521
2008-01-30 08:29:29 51°17.62 2°52.508 -999 0.239921 1.369976 -1.801521
2008-01-30 08:29:34 51°17.636 2°52.507 -999 0.239921 1.369976 -1.801521
2008-01-30 08:29:39 51°17.652 2°52.507 -999 0.239818 1.369384 -1.801521
2008-01-30 08:29:44 51°17.667 2°52.508 -999 0.239612 1.36809 -1.801521
2008-01-30 08:29:49 51°17.682 2°52.51 -999 0.240024 1.370651 -1.801521
2008-01-30 08:29:54 51°17.697 2°52.512 -999 0.240333 1.37251 -1.801521
2008-01-30 08:29:59 51°17.712 2°52.513 -999 0.240538 1.373722 -1.801521
2008-01-30 08:30:04 51°17.726 2°52.515 -999 0.240333 1.372373 -1.801521
2008-01-30 08:30:09 51°17.741 2°52.517 -999 0.240333 1.372373 -1.801521
2008-01-30 08:30:14 51°17.756 2°52.519 -999 0.240333 1.372373 -1.801521
2008-01-30 08:30:19 51°17.771 2°52.521 -999 0.240333 1.372318 -1.766697
2008-01-30 08:30:24 51°17.786 2°52.524 -999 0.240333 1.372373 -1.801521
2008-01-30 08:30:29 51°17.801 2°52.529 -999 0.24023 1.371753 -1.801521
2008-01-30 08:30:34 51°17.816 2°52.534 -999 0.24023 1.371753 -1.801521
2008-01-30 08:30:39 51°17.831 2°52.539 -999 0.240333 1.372537 -1.766697
2008-01-30 08:30:44 51°17.845 2°52.544 -999 0.240127 1.371325 -1.801521
2008-01-30 08:30:49 51°17.859 2°52.549 -999 0.240333 1.372592 -1.801521
2008-01-30 08:30:54 51°17.874 2°52.554 -999 0.240127 1.37127 -1.801521
2008-01-30 08:30:59 51°17.889 2°52.559 -999 0.240127 1.37127 -1.801521
2008-01-30 08:31:04 51°17.904 2°52.563 -999 0.240127 1.37127 -1.801521
2008-01-30 08:31:09 51°17.919 2°52.568 -999 0.240127 1.371216 -1.801521
2008-01-30 08:31:14 51°17.935 2°52.572 -999 0.240127 1.371298 -1.801521
2008-01-30 08:31:19 51°17.951 2°52.577 -999 0.240024 1.370651 -1.801521
2008-01-30 08:31:24 51°17.966 2°52.581 -999 0.24023 1.372027 -1.801521
2008-01-30 08:31:29 51°17.982 2°52.587 -999 0.240024 1.370788 -1.801521
2008-01-30 08:31:34 51°17.997 2°52.593 -999 0.240024 1.370788 -1.801521
2008-01-30 08:31:39 51°18.012 2°52.601 -999 0.240127 1.37138 -1.801521
2008-01-30 08:31:44 51°18.027 2°52.609 -999 0.240024 1.37076 -1.801521
2008-01-30 08:31:49 51°18.042 2°52.618 -999 0.240024 1.370733 -1.766697
2008-01-30 08:31:54 51°18.056 2°52.63 -999 0.24023 1.372 -1.801521
2008-01-30 08:31:59 51°18.07 2°52.642 -999 0.240127 1.37138 -1.801521
2008-01-30 08:32:04 51°18.083 2°52.656 -999 0.240127 1.37138 -1.801521
2008-01-30 08:32:09 51°18.096 2°52.671 -999 0.239921 1.370168 -1.801521
2008-01-30 08:32:14 51°18.108 2°52.688 -999 0.240127 1.37138 -1.766697
2008-01-30 08:32:19 51°18.121 2°52.704 -999 0.240024 1.370815 -1.801521
2008-01-30 08:32:24 51°18.132 2°52.723 -999 0.240024 1.370788 -1.801521
2008-01-30 08:32:29 51°18.144 2°52.74 -999 0.240127 1.371517 -1.801521
2008-01-30 08:32:34 51°18.154 2°52.76 -999 0.240127 1.371517 -1.801521
2008-01-30 08:32:39 51°18.165 2°52.78 -999 0.240024 1.370788 -1.801521
2008-01-30 08:32:44 51°18.175 2°52.8 -999 0.240024 1.370842 -1.801521
2008-01-30 08:32:49 51°18.185 2°52.82 -999 0.240024 1.370842 -1.801521
2008-01-30 08:32:54 51°18.195 2°52.841 -999 0.240127 1.371462 -1.801521
2008-01-30 08:32:59 51°18.204 2°52.863 -999 0.239921 1.37025 -1.766697
2008-01-30 08:33:04 51°18.213 2°52.884 -999 0.239921 1.37025 -1.766697
2008-01-30 08:33:09 51°18.222 2°52.905 -999 0.239921 1.370222 -1.801521
2008-01-30 08:33:14 51°18.232 2°52.927 -999 0.240024 1.370897 -1.766697
2008-01-30 08:33:19 51°18.241 2°52.948 -999 0.239921 1.370332 -1.801521
2008-01-30 08:33:24 51°18.251 2°52.97 -999 0.239921 1.370277 -1.801521
2008-01-30 08:33:29 51°18.26 2°52.991 -999 0.239921 1.370277 -1.801521
2008-01-30 08:33:34 51°18.269 2°53.013 -999 0.240024 1.370952 -1.801521
2008-01-30 08:33:39 51°18.278 2°53.035 -999 0.240024 1.370952 -1.801521
2008-01-30 08:33:44 51°18.288 2°53.057 -999 0.239921 1.370277 -1.801521
2008-01-30 08:33:49 51°18.296 2°53.079 -999 0.239921 1.370304 -1.801521
2008-01-30 08:33:54 51°18.306 2°53.099 -999 0.240127 1.371572 -1.801521
2008-01-30 08:33:59 51°18.314 2°53.122 -999 0.239921 1.370387 -1.801521
2008-01-30 08:34:04 51°18.324 2°53.143 -999 0.239921 1.370387 -1.801521
2008-01-30 08:34:09 51°18.332 2°53.166 -999 0.239921 1.370332 -1.801521
2008-01-30 08:34:14 51°18.342 2°53.187 -999 0.240024 1.370952 -1.801521
2008-01-30 08:34:19 51°18.35 2°53.21 -999 0.239921 1.370387 -1.801521
2008-01-30 08:34:24 51°18.36 2°53.231 -999 0.239921 1.370277 -1.801521
2008-01-30 08:34:29 51°18.368 2°53.255 -999 0.239921 1.370332 -1.801521
2008-01-30 08:34:34 51°18.378 2°53.275 -999 0.239921 1.370332 -1.801521
2008-01-30 08:34:39 51°18.386 2°53.297 -999 0.239818 1.369739 -1.801521
2008-01-30 08:34:44 51°18.394 2°53.32 -999 0.239921 1.370359 -1.801521
2008-01-30 08:34:49 51°18.402 2°53.342 -999 0.240024 1.370897 -1.801521
2008-01-30 08:34:54 51°18.411 2°53.365 -999 0.240024 1.370979 -1.801521
2008-01-30 08:34:59 51°18.42 2°53.387 -999 0.240024 1.370952 -1.801521
2008-01-30 08:35:04 51°18.428 2°53.409 -999 0.240024 1.370952 -1.801521
2008-01-30 08:35:09 51°18.437 2°53.431 -999 0.239921 1.370304 -1.801521
2008-01-30 08:35:14 51°18.445 2°53.454 -999 0.240024 1.370924 -1.801521
2008-01-30 08:35:19 51°18.453 2°53.477 -999 0.239921 1.370304 -1.801521
2008-01-30 08:35:24 51°18.462 2°53.499 -999 0.240024 1.370924 -1.801521
2008-01-30 08:35:29 51°18.47 2°53.521 -999 0.240024 1.370897 -1.801521
2008-01-30 08:35:34 51°18.478 2°53.545 -999 0.239921 1.370441 -1.801521
2008-01-30 08:35:39 51°18.487 2°53.567 -999 0.239921 1.370441 -1.801521
2008-01-30 08:35:44 51°18.494 2°53.591 -999 0.239921 1.370304 -1.801521
2008-01-30 08:35:49 51°18.502 2°53.613 -999 0.240024 1.371006 -1.801521
2008-01-30 08:35:54 51°18.509 2°53.637 -999 0.239921 1.370387 -1.766697
2008-01-30 08:35:59 51°18.517 2°53.661 -999 0.239921 1.370304 -1.801521
2008-01-30 08:36:04 51°18.525 2°53.684 -999 0.239921 1.370304 -1.801521
2008-01-30 08:36:09 51°18.532 2°53.707 -999 0.240024 1.371006 -1.801521
2008-01-30 08:36:14 51°18.539 2°53.73 -999 0.240024 1.371006 -1.801521
2008-01-30 08:36:19 51°18.548 2°53.753 -999 0.239921 1.370387 -1.801521
2008-01-30 08:36:24 51°18.554 2°53.778 -999 0.239715 1.369119 -1.801521
2008-01-30 08:36:29 51°18.563 2°53.798 -999 0.240127 1.371544 -1.801521
2008-01-30 08:36:34 51°18.569 2°53.823 -999 0.240127 1.371544 -1.801521
2008-01-30 08:36:39 51°18.579 2°53.844 -999 0.240024 1.371198 -1.801521
2008-01-30 08:36:44 51°18.586 2°53.868 -999 0.239921 1.370496 -1.801521
2008-01-30 08:36:49 51°18.594 2°53.89 -999 0.239921 1.370688 -1.801521
2008-01-30 08:36:54 51°18.602 2°53.913 -999 0.240024 1.371061 -1.801521
2008-01-30 08:36:59 51°18.609 2°53.937 -999 0.240024 1.371171 -1.801521
2008-01-30 08:37:04 51°18.618 2°53.958 -999 0.239921 1.370277 -1.801521
2008-01-30 08:37:09 51°18.624 2°53.982 -999 0.239921 1.370277 -1.801521
2008-01-30 08:37:14 51°18.632 2°54.005 -999 0.240127 1.371572 -1.801521
2008-01-30 08:37:19 51°18.639 2°54.028 -999 0.239818 1.369739 -1.801521
2008-01-30 08:37:24 51°18.646 2°54.051 -999 0.239921 1.370332 -1.801521
2008-01-30 08:37:29 51°18.653 2°54.075 -999 0.239921 1.370496 -1.801521
2008-01-30 08:37:34 51°18.66 2°54.098 -999 0.239921 1.370496 -1.801521
2008-01-30 08:37:39 51°18.668 2°54.121 -999 0.239818 1.369903 -1.801521
2008-01-30 08:37:44 51°18.674 2°54.145 -999 0.239921 1.370496 -1.801521
2008-01-30 08:37:49 51°18.682 2°54.168 -999 0.240024 1.371116 -1.766697
2008-01-30 08:37:54 51°18.689 2°54.192 -999 0.239921 1.370523 -1.801521
2008-01-30 08:37:59 51°18.696 2°54.215 -999 0.239921 1.370469 -1.801521
2008-01-30 08:38:04 51°18.704 2°54.238 -999 0.239921 1.370469 -1.801521
2008-01-30 08:38:09 51°18.711 2°54.262 -999 0.240024 1.371143 -1.801521
2008-01-30 08:38:14 51°18.719 2°54.285 -999 0.239818 1.369903 -1.801521
2008-01-30 08:38:19 51°18.726 2°54.308 -999 0.239921 1.370469 -1.801521
2008-01-30 08:38:24 51°18.733 2°54.332 -999 0.239818 1.370013 -1.801521
2008-01-30 08:38:29 51°18.741 2°54.355 -999 0.239921 1.370469 -1.801521
2008-01-30 08:38:34 51°18.748 2°54.378 -999 0.239921 1.370469 -1.801521
2008-01-30 08:38:39 51°18.756 2°54.401 -999 0.240024 1.371143 -1.801521
2008-01-30 08:38:44 51°18.763 2°54.425 -999 0.239921 1.370469 -1.801521
2008-01-30 08:38:49 51°18.771 2°54.448 -999 0.239921 1.370496 -1.766697
2008-01-30 08:38:54 51°18.779 2°54.47 -999 0.240024 1.371034 -1.801521
2008-01-30 08:38:59 51°18.785 2°54.495 -999 0.239818 1.370013 -1.766697
2008-01-30 08:39:04 51°18.795 2°54.515 -999 0.240024 1.370979 -1.801521
2008-01-30 08:39:09 51°18.799 2°54.54 -999 0.240024 1.370979 -1.801521
2008-01-30 08:39:14 51°18.808 2°54.561 -999 0.239921 1.370633 -1.801521
2008-01-30 08:39:19 51°18.813 2°54.585 -999 0.239818 1.369931 -1.801521
2008-01-30 08:39:24 51°18.822 2°54.608 -999 0.240024 1.371253 -1.801521
2008-01-30 08:39:29 51°18.828 2°54.631 -999 0.239921 1.370551 -1.801521
2008-01-30 08:39:34 51°18.836 2°54.654 -999 0.239921 1.370551 -1.801521
2008-01-30 08:39:39 51°18.844 2°54.677 -999 0.239921 1.370496 -1.801521
2008-01-30 08:39:44 51°18.852 2°54.7 -999 0.239818 1.369821 -1.801521
2008-01-30 08:39:49 51°18.859 2°54.723 -999 0.239818 1.369876 -1.801521
2008-01-30 08:39:54 51°18.866 2°54.746 -999 0.239818 1.369849 -1.766697
2008-01-30 08:39:59 51°18.874 2°54.769 -999 0.239921 1.370523 -1.801521
2008-01-30 08:40:04 51°18.881 2°54.792 -999 0.239921 1.370523 -1.801521
2008-01-30 08:40:09 51°18.888 2°54.816 -999 0.239921 1.370605 -1.801521
2008-01-30 08:40:14 51°18.897 2°54.837 -999 0.240024 1.371335 -1.801521
2008-01-30 08:40:19 51°18.904 2°54.861 -999 0.239921 1.370605 -1.801521
2008-01-30 08:40:24 51°18.913 2°54.883 -999 0.240024 1.371362 -1.801521
2008-01-30 08:40:29 51°18.92 2°54.907 -999 0.239818 1.369931 -1.801521
2008-01-30 08:40:34 51°18.928 2°54.929 -999 0.239818 1.369903 -1.801521
2008-01-30 08:40:39 51°18.935 2°54.952 -999 0.239818 1.369903 -1.801521
2008-01-30 08:40:44 51°18.944 2°54.974 -999 0.239818 1.370013 -1.801521
2008-01-30 08:40:49 51°18.95 2°54.998 -999 0.239921 1.370523 -1.801521
2008-01-30 08:40:54 51°18.959 2°55.02 -999 0.240127 1.371818 -1.766697
2008-01-30 08:40:59 51°18.965 2°55.044 -999 0.239921 1.370715 -1.801521
2008-01-30 08:41:04 51°18.973 2°55.067 -999 0.239921 1.370715 -1.801521
2008-01-30 08:41:09 51°18.98 2°55.089 -999 0.239921 1.370605 -1.801521
2008-01-30 08:41:14 51°18.988 2°55.113 -999 0.239818 1.370068 -1.801521
2008-01-30 08:41:19 51°18.995 2°55.136 -999 0.239921 1.37066 -1.801521
2008-01-30 08:41:24 51°19.003 2°55.158 -999 0.240024 1.37128 -1.801521
2008-01-30 08:41:29 51°19.01 2°55.182 -999 0.239921 1.37066 -1.801521
2008-01-30 08:41:34 51°19.019 2°55.204 -999 0.239921 1.37066 -1.801521
2008-01-30 08:41:39 51°19.027 2°55.226 -999 0.239715 1.36942 -1.801521
2008-01-30 08:41:44 51°19.034 2°55.25 -999 0.239921 1.370551 -1.801521
2008-01-30 08:41:49 51°19.042 2°55.272 -999 0.240024 1.371417 -1.766697
2008-01-30 08:41:54 51°19.049 2°55.295 -999 0.240024 1.371253 -1.801521
2008-01-30 08:41:59 51°19.056 2°55.319 -999 0.239921 1.37077 -1.801521
2008-01-30 08:42:04 51°19.063 2°55.343 -999 0.239921 1.37077 -1.801521
2008-01-30 08:42:09 51°19.07 2°55.366 -999 0.239921 1.370633 -1.801521
2008-01-30 08:42:14 51°19.075 2°55.39 -999 0.239818 1.370013 -1.766697
2008-01-30 08:42:19 51°19.082 2°55.414 -999 0.239921 1.370605 -1.801521
2008-01-30 08:42:24 51°19.089 2°55.436 -999 0.240024 1.371253 -1.801521
2008-01-30 08:42:29 51°19.095 2°55.461 -999 0.239818 1.369986 -1.801521
2008-01-30 08:42:34 51°19.102 2°55.484 -999 0.24023 1.372493 -1.801521
2008-01-30 08:42:39 51°19.107 2°55.51 -999 0.24023 1.372493 -1.801521
2008-01-30 08:42:44 51°19.114 2°55.532 -999 0.239818 1.370122 -1.801521
2008-01-30 08:42:49 51°19.118 2°55.557 -999 0.239921 1.37077 -1.801521
2008-01-30 08:42:54 51°19.126 2°55.58 -999 0.240127 1.372311 -1.766697
2008-01-30 08:42:59 51°19.132 2°55.604 -999 0.239921 1.371016 -1.801521
2008-01-30 08:43:04 51°19.137 2°55.627 -999 0.239921 1.371016 -1.801521
2008-01-30 08:43:09 51°19.144 2°55.65 -999 0.239921 1.370879 -1.801521
2008-01-30 08:43:14 51°19.15 2°55.674 -999 0.240024 1.371225 -1.801521
2008-01-30 08:43:19 51°19.156 2°55.697 -999 0.240127 1.371709 -1.801521
2008-01-30 08:43:24 51°19.162 2°55.722 -999 0.240024 1.371171 -1.801521
2008-01-30 08:43:29 51°19.169 2°55.745 -999 0.240127 1.371873 -1.801521
2008-01-30 08:43:34 51°19.175 2°55.769 -999 0.240127 1.371873 -1.801521
2008-01-30 08:43:39 51°19.182 2°55.793 -999 0.239921 1.370852 -1.801521
2008-01-30 08:43:44 51°19.188 2°55.816 -999 0.239921 1.370961 -1.801521
2008-01-30 08:43:49 51°19.195 2°55.841 -999 0.240024 1.371527 -1.801521
2008-01-30 08:43:54 51°19.202 2°55.864 -999 0.240024 1.371499 -1.801521
2008-01-30 08:43:59 51°19.206 2°55.889 -999 0.239818 1.370095 -1.801521
2008-01-30 08:44:04 51°19.212 2°55.913 -999 0.239921 1.37066 -1.801521
2008-01-30 08:44:09 51°19.217 2°55.938 -999 0.239921 1.37066 -1.801521
2008-01-30 08:44:14 51°19.222 2°55.962 -999 0.239921 1.37066 -1.801521
2008-01-30 08:44:19 51°19.227 2°55.986 -999 0.240024 1.371143 -1.801521
2008-01-30 08:44:24 51°19.231 2°56.012 -999 0.239818 1.37015 -1.801521
2008-01-30 08:44:29 51°19.237 2°56.036 -999 0.240024 1.371225 -1.801521
2008-01-30 08:44:34 51°19.241 2°56.061 -999 0.240024 1.371417 -1.766697
2008-01-30 08:44:39 51°19.247 2°56.086 -999 0.240024 1.371417 -1.766697
2008-01-30 08:44:44 51°19.253 2°56.109 -999 0.240024 1.37128 -1.801521
2008-01-30 08:44:49 51°19.256 2°56.134 -999 0.239818 1.37004 -1.801521
2008-01-30 08:44:54 51°19.263 2°56.158 -999 0.239921 1.370715 -1.801521
2008-01-30 08:44:59 51°19.269 2°56.182 -999 0.240127 1.3719 -1.801521
2008-01-30 08:45:04 51°19.274 2°56.207 -999 0.240127 1.3719 -1.801521
2008-01-30 08:45:09 51°19.279 2°56.23 -999 0.240127 1.3719 -1.801521
2008-01-30 08:45:14 51°19.283 2°56.256 -999 0.239921 1.37077 -1.801521
2008-01-30 08:45:19 51°19.29 2°56.279 -999 0.240127 1.372147 -1.801521
2008-01-30 08:45:24 51°19.294 2°56.303 -999 0.240024 1.371472 -1.801521
2008-01-30 08:45:29 51°19.3 2°56.328 -999 0.240024 1.371499 -1.801521
2008-01-30 08:45:34 51°19.305 2°56.352 -999 0.240024 1.371499 -1.801521
2008-01-30 08:45:39 51°19.31 2°56.376 -999 0.239921 1.37077 -1.801521
2008-01-30 08:45:44 51°19.315 2°56.401 -999 0.240127 1.371928 -1.801521
2008-01-30 08:45:49 51°19.32 2°56.425 -999 0.239921 1.370742 -1.801521
2008-01-30 08:45:54 51°19.325 2°56.45 -999 0.239921 1.370688 -1.801521
2008-01-30 08:45:59 51°19.33 2°56.474 -999 0.239921 1.370715 -1.801521
2008-01-30 08:46:04 51°19.336 2°56.498 -999 0.239921 1.37077 -1.801521
2008-01-30 08:46:09 51°19.341 2°56.523 -999 0.239921 1.37077 -1.801521
2008-01-30 08:46:14 51°19.346 2°56.547 -999 0.240024 1.371335 -1.801521
2008-01-30 08:46:19 51°19.35 2°56.572 -999 0.239921 1.370742 -1.801521
2008-01-30 08:46:24 51°19.358 2°56.595 -999 0.240127 1.372037 -1.766697
2008-01-30 08:46:29 51°19.361 2°56.621 -999 0.239921 1.370742 -1.801521
2008-01-30 08:46:34 51°19.368 2°56.645 -999 0.239921 1.370742 -1.801521
2008-01-30 08:46:39 51°19.373 2°56.669 -999 0.239921 1.370742 -1.801521
2008-01-30 08:46:44 51°19.378 2°56.694 -999 0.239921 1.370824 -1.801521
2008-01-30 08:46:49 51°19.385 2°56.717 -999 0.240127 1.371983 -1.801521
2008-01-30 08:46:54 51°19.389 2°56.742 -999 0.239818 1.370204 -1.801521
2008-01-30 08:46:59 51°19.395 2°56.765 -999 0.239921 1.370715 -1.801521
2008-01-30 08:47:04 51°19.4 2°56.791 -999 0.239921 1.370715 -1.801521
2008-01-30 08:47:09 51°19.408 2°56.813 -999 0.239921 1.370907 -1.801521
2008-01-30 08:47:14 51°19.411 2°56.838 -999 0.239921 1.370715 -1.801521
2008-01-30 08:47:19 51°19.418 2°56.861 -999 0.240024 1.371472 -1.801521
2008-01-30 08:47:24 51°19.423 2°56.886 -999 0.240024 1.371472 -1.801521
2008-01-30 08:47:29 51°19.429 2°56.91 -999 0.240024 1.37139 -1.801521
2008-01-30 08:47:34 51°19.433 2°56.934 -999 0.239921 1.370907 -1.766697
2008-01-30 08:47:39 51°19.44 2°56.958 -999 0.239921 1.370907 -1.766697
2008-01-30 08:47:44 51°19.445 2°56.982 -999 0.240024 1.371445 -1.801521
2008-01-30 08:47:49 51°19.451 2°57.007 -999 0.240024 1.371445 -1.801521
2008-01-30 08:47:54 51°19.456 2°57.031 -999 0.240024 1.371335 -1.801521
2008-01-30 08:47:59 51°19.461 2°57.055 -999 0.240127 1.371955 -1.801521
2008-01-30 08:48:04 51°19.465 2°57.08 -999 0.239921 1.370742 -1.801521
2008-01-30 08:48:09 51°19.471 2°57.103 -999 0.239921 1.370742 -1.801521
2008-01-30 08:48:14 51°19.475 2°57.129 -999 0.239818 1.37015 -1.801521
2008-01-30 08:48:19 51°19.483 2°57.152 -999 0.24023 1.372712 -1.801521
2008-01-30 08:48:24 51°19.485 2°57.177 -999 0.239921 1.370961 -1.801521
2008-01-30 08:48:29 51°19.493 2°57.2 -999 0.240024 1.371499 -1.801521
2008-01-30 08:48:34 51°19.497 2°57.225 -999 0.240024 1.371499 -1.801521
2008-01-30 08:48:39 51°19.503 2°57.249 -999 0.240127 1.37212 -1.801521
2008-01-30 08:48:44 51°19.508 2°57.273 -999 0.239818 1.370232 -1.801521
2008-01-30 08:48:49 51°19.512 2°57.297 -999 0.240127 1.3719 -1.801521
2008-01-30 08:48:54 51°19.518 2°57.321 -999 0.240127 1.372065 -1.801521
2008-01-30 08:48:59 51°19.522 2°57.346 -999 0.239921 1.370797 -1.801521
2008-01-30 08:49:04 51°19.529 2°57.369 -999 0.239921 1.370797 -1.801521
2008-01-30 08:49:09 51°19.533 2°57.394 -999 0.240024 1.371417 -1.801521
2008-01-30 08:49:14 51°19.541 2°57.416 -999 0.240127 1.372229 -1.801521
2008-01-30 08:49:19 51°19.545 2°57.441 -999 0.240024 1.371445 -1.801521
2008-01-30 08:49:24 51°19.551 2°57.465 -999 0.240127 1.372174 -1.801521
2008-01-30 08:49:29 51°19.557 2°57.489 -999 0.240024 1.371472 -1.801521
2008-01-30 08:49:34 51°19.563 2°57.512 -999 0.240024 1.371445 -1.801521
2008-01-30 08:49:39 51°19.567 2°57.537 -999 0.240024 1.371445 -1.801521
2008-01-30 08:49:44 51°19.573 2°57.561 -999 0.240127 1.372037 -1.801521
2008-01-30 08:49:49 51°19.578 2°57.586 -999 0.240024 1.371445 -1.801521
2008-01-30 08:49:54 51°19.585 2°57.609 -999 0.240333 1.373223 -1.801521
2008-01-30 08:49:59 51°19.588 2°57.633 -999 0.240024 1.371554 -1.801521
2008-01-30 08:50:04 51°19.594 2°57.657 -999 0.240024 1.371554 -1.801521
2008-01-30 08:50:09 51°19.597 2°57.682 -999 0.24023 1.372685 -1.766697
2008-01-30 08:50:14 51°19.605 2°57.705 -999 0.24023 1.372849 -1.801521
2008-01-30 08:50:19 51°19.609 2°57.73 -999 0.239818 1.370287 -1.766697
2008-01-30 08:50:24 51°19.616 2°57.753 -999 0.24023 1.372767 -1.766697
2008-01-30 08:50:29 51°19.622 2°57.777 -999 0.24023 1.372849 -1.801521
2008-01-30 08:50:34 51°19.627 2°57.801 -999 0.24023 1.372849 -1.801521
2008-01-30 08:50:39 51°19.632 2°57.825 -999 0.24023 1.37274 -1.766697
2008-01-30 08:50:44 51°19.638 2°57.849 -999 0.240024 1.371527 -1.801521
2008-01-30 08:50:49 51°19.643 2°57.874 -999 0.240127 1.372065 -1.801521
2008-01-30 08:50:54 51°19.65 2°57.897 -999 0.240127 1.372202 -1.801521
2008-01-30 08:50:59 51°19.654 2°57.921 -999 0.240024 1.371445 -1.801521
2008-01-30 08:51:04 51°19.66 2°57.945 -999 0.24023 1.372822 -1.801521
2008-01-30 08:51:09 51°19.665 2°57.97 -999 0.24023 1.372822 -1.801521
2008-01-30 08:51:14 51°19.671 2°57.994 -999 0.240024 1.371719 -1.801521
2008-01-30 08:51:19 51°19.677 2°58.018 -999 0.24023 1.372849 -1.801521
2008-01-30 08:51:24 51°19.681 2°58.042 -999 0.240127 1.372311 -1.801521
2008-01-30 08:51:29 51°19.687 2°58.066 -999 0.240024 1.371582 -1.801521
2008-01-30 08:51:34 51°19.693 2°58.09 -999 0.24023 1.37274 -1.801521
2008-01-30 08:51:39 51°19.697 2°58.114 -999 0.24023 1.37274 -1.801521
2008-01-30 08:51:44 51°19.703 2°58.137 -999 0.240024 1.371554 -1.801521
2008-01-30 08:51:49 51°19.707 2°58.162 -999 0.240127 1.372037 -1.801521
2008-01-30 08:51:54 51°19.714 2°58.185 -999 0.24023 1.372822 -1.801521
2008-01-30 08:51:59 51°19.719 2°58.209 -999 0.240127 1.372092 -1.801521
2008-01-30 08:52:04 51°19.725 2°58.232 -999 0.240127 1.372092 -1.801521
2008-01-30 08:52:09 51°19.73 2°58.256 -999 0.24023 1.37274 -1.801521
2008-01-30 08:52:14 51°19.735 2°58.28 -999 0.240127 1.372037 -1.801521
2008-01-30 08:52:19 51°19.741 2°58.304 -999 0.240127 1.372037 -1.801521
2008-01-30 08:52:24 51°19.745 2°58.329 -999 0.240024 1.371417 -1.801521
2008-01-30 08:52:29 51°19.751 2°58.353 -999 0.240127 1.372065 -1.766697
2008-01-30 08:52:34 51°19.756 2°58.377 -999 0.240127 1.372065 -1.766697
2008-01-30 08:52:39 51°19.762 2°58.4 -999 0.24023 1.372822 -1.766697
2008-01-30 08:52:44 51°19.766 2°58.424 -999 0.240127 1.37212 -1.801521
2008-01-30 08:52:49 51°19.772 2°58.448 -999 0.24023 1.372822 -1.801521
2008-01-30 08:52:54 51°19.777 2°58.473 -999 0.240127 1.372174 -1.801521
2008-01-30 08:52:59 51°19.782 2°58.496 -999 0.240127 1.372092 -1.766697
2008-01-30 08:53:04 51°19.787 2°58.521 -999 0.240127 1.37212 -1.801521
2008-01-30 08:53:09 51°19.792 2°58.544 -999 0.240127 1.37212 -1.801521
2008-01-30 08:53:14 51°19.796 2°58.569 -999 0.240024 1.371445 -1.801521
2008-01-30 08:53:19 51°19.802 2°58.592 -999 0.240333 1.373305 -1.801521
2008-01-30 08:53:24 51°19.806 2°58.616 -999 0.240127 1.372229 -1.801521
2008-01-30 08:53:29 51°19.812 2°58.64 -999 0.240127 1.372174 -1.801521
2008-01-30 08:53:34 51°19.817 2°58.664 -999 0.240127 1.372174 -1.801521
2008-01-30 08:53:39 51°19.821 2°58.689 -999 0.240333 1.373387 -1.801521
2008-01-30 08:53:44 51°19.829 2°58.711 -999 0.240127 1.372311 -1.801521
2008-01-30 08:53:49 51°19.83 2°58.737 -999 0.240024 1.371472 -1.801521
2008-01-30 08:53:54 51°19.836 2°58.76 -999 0.24023 1.372822 -1.801521
2008-01-30 08:53:59 51°19.84 2°58.784 -999 0.24023 1.37274 -1.801521
2008-01-30 08:54:04 51°19.845 2°58.808 -999 0.24023 1.37274 -1.801521
2008-01-30 08:54:09 51°19.851 2°58.831 -999 0.240024 1.371664 -1.766697
2008-01-30 08:54:14 51°19.854 2°58.856 -999 0.24023 1.372685 -1.766697
2008-01-30 08:54:19 51°19.86 2°58.879 -999 0.24023 1.372904 -1.801521
2008-01-30 08:54:24 51°19.864 2°58.903 -999 0.24023 1.37274 -1.801521
2008-01-30 08:54:29 51°19.869 2°58.926 -999 0.24023 1.372849 -1.801521
2008-01-30 08:54:34 51°19.873 2°58.95 -999 0.24023 1.372849 -1.801521
2008-01-30 08:54:39 51°19.879 2°58.973 -999 0.240024 1.371582 -1.801521
2008-01-30 08:54:44 51°19.884 2°58.997 -999 0.24023 1.372877 -1.801521
2008-01-30 08:54:49 51°19.888 2°59.02 -999 0.240127 1.372284 -1.801521
2008-01-30 08:54:54 51°19.895 2°59.043 -999 0.240333 1.37347 -1.801521
2008-01-30 08:54:59 51°19.899 2°59.067 -999 0.24023 1.372849 -1.801521
2008-01-30 08:55:04 51°19.905 2°59.09 -999 0.24023 1.372712 -1.801521
2008-01-30 08:55:09 51°19.909 2°59.114 -999 0.24023 1.372712 -1.801521
2008-01-30 08:55:14 51°19.914 2°59.138 -999 0.240127 1.372147 -1.766697
2008-01-30 08:55:19 51°19.918 2°59.162 -999 0.24023 1.372657 -1.801521
2008-01-30 08:55:24 51°19.922 2°59.187 -999 0.240024 1.371636 -1.801521
2008-01-30 08:55:29 51°19.928 2°59.21 -999 0.24023 1.372767 -1.801521
2008-01-30 08:55:34 51°19.932 2°59.234 -999 0.24023 1.372767 -1.801521
2008-01-30 08:55:39 51°19.936 2°59.259 -999 0.24023 1.372849 -1.801521
2008-01-30 08:55:44 51°19.941 2°59.283 -999 0.240127 1.372229 -1.801521
2008-01-30 08:55:49 51°19.945 2°59.307 -999 0.240436 1.373953 -1.801521
2008-01-30 08:55:54 51°19.949 2°59.331 -999 0.240127 1.372339 -1.801521
2008-01-30 08:55:59 51°19.953 2°59.355 -999 0.24023 1.372877 -1.801521
2008-01-30 08:56:04 51°19.958 2°59.379 -999 0.24023 1.372877 -1.801521
2008-01-30 08:56:09 51°19.963 2°59.402 -999 0.24023 1.372987 -1.801521
2008-01-30 08:56:14 51°19.966 2°59.426 -999 0.24023 1.372795 -1.801521
2008-01-30 08:56:19 51°19.972 2°59.449 -999 0.240333 1.373552 -1.801521
2008-01-30 08:56:24 51°19.977 2°59.473 -999 0.24023 1.372767 -1.801521
2008-01-30 08:56:29 51°19.981 2°59.497 -999 0.24023 1.372822 -1.801521
2008-01-30 08:56:34 51°19.986 2°59.52 -999 0.24023 1.372712 -1.801521
2008-01-30 08:56:39 51°19.989 2°59.545 -999 0.24023 1.372712 -1.801521
2008-01-30 08:56:44 51°19.994 2°59.568 -999 0.24023 1.372849 -1.766697
2008-01-30 08:56:49 51°19.997 2°59.593 -999 0.24023 1.372877 -1.801521
2008-01-30 08:56:54 51°20.002 2°59.617 -999 0.24023 1.372932 -1.801521
2008-01-30 08:56:59 51°20.005 2°59.641 -999 0.24023 1.372849 -1.766697
2008-01-30 08:57:04 51°20.008 2°59.666 -999 0.240127 1.372339 -1.801521
2008-01-30 08:57:09 51°20.014 2°59.69 -999 0.240127 1.372339 -1.801521
2008-01-30 08:57:14 51°20.017 2°59.713 -999 0.24023 1.372767 -1.801521
2008-01-30 08:57:19 51°20.018 2°59.74 -999 0.240127 1.372394 -1.801521
2008-01-30 08:57:24 51°20.027 2°59.761 -999 0.240539 1.374875 -1.801521
2008-01-30 08:57:29 51°20.027 2°59.786 -999 0.240127 1.372558 -1.801521
2008-01-30 08:57:34 51°20.035 2°59.808 -999 0.240127 1.372558 -1.801521
2008-01-30 08:57:39 51°20.038 2°59.832 -999 0.240333 1.373524 -1.801521
2008-01-30 08:57:44 51°20.043 2°59.855 -999 0.240539 1.374738 -1.801521
2008-01-30 08:57:49 51°20.047 2°59.88 -999 0.24023 1.372795 -1.801521
2008-01-30 08:57:54 51°20.052 2°59.902 -999 0.240539 1.374545 -1.801521
2008-01-30 08:57:59 51°20.055 2°59.927 -999 0.240333 1.373442 -1.766697
2008-01-30 08:58:04 51°20.061 2°59.95 -999 0.240333 1.373442 -1.766697
2008-01-30 08:58:09 51°20.064 2°59.973 -999 0.240436 1.373925 -1.801521
2008-01-30 08:58:14 51°20.069 2°59.997 -999 0.24023 1.372795 -1.801521
2008-01-30 08:58:19 51°20.073 3°0.021 -999 0.240436 1.373953 -1.801521
2008-01-30 08:58:24 51°20.077 3°0.045 -999 0.240333 1.37347 -1.801521
2008-01-30 08:58:29 51°20.082 3°0.068 -999 0.240436 1.37409 -1.801521
2008-01-30 08:58:34 51°20.085 3°0.092 -999 0.24023 1.372904 -1.801521
2008-01-30 08:58:39 51°20.089 3°0.116 -999 0.24023 1.372904 -1.801521
2008-01-30 08:58:44 51°20.094 3°0.14 -999 0.24023 1.372987 -1.801521
2008-01-30 08:58:49 51°20.097 3°0.163 -999 0.24023 1.372904 -1.801521
2008-01-30 08:58:54 51°20.1 3°0.188 -999 0.24023 1.372987 -1.801521
2008-01-30 08:58:59 51°20.105 3°0.211 -999 0.240436 1.374172 -1.801521
2008-01-30 08:59:04 51°20.108 3°0.236 -999 0.240436 1.374172 -1.801521
2008-01-30 08:59:09 51°20.112 3°0.26 -999 0.240333 1.373607 -1.801521
2008-01-30 08:59:14 51°20.116 3°0.283 -999 0.240436 1.374172 -1.801521
2008-01-30 08:59:19 51°20.118 3°0.309 -999 0.24023 1.373014 -1.801521
2008-01-30 08:59:24 51°20.124 3°0.332 -999 0.240333 1.373634 -1.801521
2008-01-30 08:59:29 51°20.126 3°0.357 -999 0.24023 1.373041 -1.801521
2008-01-30 08:59:34 51°20.13 3°0.38 -999 0.24023 1.373041 -1.801521
2008-01-30 08:59:39 51°20.134 3°0.405 -999 0.240333 1.373689 -1.801521
2008-01-30 08:59:44 51°20.137 3°0.429 -999 0.24023 1.373096 -1.801521
2008-01-30 08:59:49 51°20.142 3°0.451 -999 0.240436 1.374255 -1.801521
2008-01-30 08:59:54 51°20.144 3°0.477 -999 0.240127 1.372421 -1.801521
2008-01-30 08:59:59 51°20.149 3°0.5 -999 0.24023 1.372987 -1.801521
2008-01-30 09:00:04 51°20.152 3°0.523 -999 0.240436 1.374282 -1.801521
2008-01-30 09:00:09 51°20.155 3°0.548 -999 0.240436 1.374282 -1.801521
2008-01-30 09:00:14 51°20.16 3°0.571 -999 0.24023 1.373096 -1.801521
2008-01-30 09:00:19 51°20.162 3°0.595 -999 0.24023 1.373069 -1.801521
2008-01-30 09:00:24 51°20.168 3°0.618 -999 0.240436 1.374447 -1.801521
2008-01-30 09:00:29 51°20.17 3°0.642 -999 0.24023 1.373151 -1.801521
2008-01-30 09:00:34 51°20.175 3°0.665 -999 0.240436 1.374447 -1.801521
2008-01-30 09:00:39 51°20.18 3°0.688 -999 0.240436 1.374447 -1.801521
2008-01-30 09:00:44 51°20.183 3°0.713 -999 0.24023 1.373233 -1.801521
2008-01-30 09:00:49 51°20.19 3°0.735 -999 0.240436 1.374474 -1.801521
2008-01-30 09:00:54 51°20.193 3°0.758 -999 0.240333 1.373689 -1.801521
2008-01-30 09:00:59 51°20.198 3°0.782 -999 0.24023 1.373069 -1.801521
2008-01-30 09:01:04 51°20.203 3°0.805 -999 0.24023 1.373069 -1.801521
2008-01-30 09:01:09 51°20.207 3°0.829 -999 0.240333 1.373524 -1.801521
2008-01-30 09:01:14 51°20.213 3°0.852 -999 0.24023 1.372987 -1.801521
2008-01-30 09:01:19 51°20.218 3°0.875 -999 0.24023 1.372987 -1.801521
2008-01-30 09:01:24 51°20.222 3°0.899 -999 0.24023 1.373014 -1.801521
2008-01-30 09:01:29 51°20.227 3°0.922 -999 0.240333 1.373662 -1.801521
2008-01-30 09:01:34 51°20.231 3°0.946 -999 0.240333 1.373662 -1.801521
2008-01-30 09:01:39 51°20.236 3°0.969 -999 0.24023 1.373124 -1.801521
2008-01-30 09:01:44 51°20.241 3°0.993 -999 0.240436 1.374337 -1.801521
2008-01-30 09:01:49 51°20.246 3°1.016 -999 0.240333 1.373799 -1.766697
2008-01-30 09:01:54 51°20.25 3°1.04 -999 0.240127 1.372586 -1.766697
2008-01-30 09:01:59 51°20.255 3°1.062 -999 0.240333 1.373717 -1.801521
2008-01-30 09:02:04 51°20.259 3°1.086 -999 0.24023 1.373233 -1.801521
2008-01-30 09:02:09 51°20.265 3°1.11 -999 0.24023 1.373233 -1.801521
2008-01-30 09:02:14 51°20.268 3°1.133 -999 0.240333 1.373717 -1.801521
2008-01-30 09:02:19 51°20.272 3°1.157 -999 0.24023 1.373233 -1.801521
2008-01-30 09:02:24 51°20.278 3°1.18 -999 0.240333 1.373771 -1.801521
2008-01-30 09:02:29 51°20.282 3°1.203 -999 0.240436 1.374392 -1.801521
2008-01-30 09:02:34 51°20.286 3°1.227 -999 0.240436 1.374392 -1.801521
2008-01-30 09:02:39 51°20.292 3°1.25 -999 0.240127 1.372613 -1.801521
2008-01-30 09:02:44 51°20.295 3°1.273 -999 0.240333 1.373771 -1.801521
2008-01-30 09:02:49 51°20.299 3°1.296 -999 0.240333 1.373936 -1.801521
2008-01-30 09:02:54 51°20.304 3°1.32 -999 0.240333 1.373854 -1.801521
2008-01-30 09:02:59 51°20.309 3°1.343 -999 0.240333 1.373881 -1.801521
2008-01-30 09:03:04 51°20.313 3°1.366 -999 0.240333 1.373881 -1.801521
2008-01-30 09:03:09 51°20.318 3°1.389 -999 0.24023 1.373261 -1.801521
2008-01-30 09:03:14 51°20.322 3°1.412 -999 0.24023 1.373151 -1.801521
2008-01-30 09:03:19 51°20.327 3°1.435 -999 0.240436 1.374364 -1.801521
2008-01-30 09:03:24 51°20.332 3°1.458 -999 0.24023 1.373316 -1.801521
2008-01-30 09:03:29 51°20.336 3°1.482 -999 0.240127 1.372531 -1.801521
2008-01-30 09:03:34 51°20.34 3°1.506 -999 0.240333 1.373909 -1.801521
2008-01-30 09:03:39 51°20.344 3°1.529 -999 0.240333 1.373909 -1.801521
2008-01-30 09:03:44 51°20.348 3°1.553 -999 0.240127 1.372778 -1.801521
2008-01-30 09:03:49 51°20.354 3°1.575 -999 0.240436 1.374639 -1.801521
2008-01-30 09:03:54 51°20.357 3°1.598 -999 0.24023 1.373453 -1.801521
2008-01-30 09:03:59 51°20.364 3°1.621 -999 0.240333 1.373826 -1.801521
2008-01-30 09:04:04 51°20.368 3°1.644 -999 0.240539 1.374985 -1.801521
2008-01-30 09:04:09 51°20.372 3°1.668 -999 0.240539 1.374985 -1.801521
2008-01-30 09:04:14 51°20.377 3°1.691 -999 0.240436 1.374337 -1.801521
2008-01-30 09:04:19 51°20.382 3°1.714 -999 0.240333 1.373826 -1.801521
2008-01-30 09:04:24 51°20.387 3°1.738 -999 0.240436 1.374447 -1.801521
2008-01-30 09:04:29 51°20.391 3°1.761 -999 0.240436 1.374529 -1.801521
2008-01-30 09:04:34 51°20.395 3°1.784 -999 0.240436 1.374529 -1.801521
2008-01-30 09:04:39 51°20.4 3°1.807 -999 0.24023 1.373371 -1.766697
2008-01-30 09:04:44 51°20.406 3°1.831 -999 0.240436 1.374639 -1.801521
2008-01-30 09:04:49 51°20.411 3°1.854 -999 0.240333 1.373991 -1.801521
2008-01-30 09:04:54 51°20.414 3°1.878 -999 0.240333 1.373964 -1.801521
2008-01-30 09:04:59 51°20.419 3°1.901 -999 0.240436 1.374667 -1.801521
2008-01-30 09:05:04 51°20.424 3°1.924 -999 0.240436 1.374667 -1.801521
2008-01-30 09:05:09 51°20.428 3°1.947 -999 0.240333 1.373881 -1.801521
2008-01-30 09:05:14 51°20.433 3°1.972 -999 0.240436 1.374557 -1.801521
2008-01-30 09:05:19 51°20.438 3°1.994 -999 0.24023 1.373371 -1.801521
2008-01-30 09:05:24 51°20.44 3°2.02 -999 0.24023 1.373179 -1.801521
2008-01-30 09:05:29 51°20.447 3°2.041 -999 0.240641 1.375798 -1.801521
2008-01-30 09:05:34 51°20.449 3°2.066 -999 0.24023 1.373453 -1.801521
2008-01-30 09:05:39 51°20.456 3°2.088 -999 0.24023 1.373453 -1.801521
2008-01-30 09:05:44 51°20.459 3°2.112 -999 0.240436 1.374557 -1.801521
2008-01-30 09:05:49 51°20.464 3°2.136 -999 0.240333 1.374101 -1.801521
2008-01-30 09:05:54 51°20.468 3°2.159 -999 0.240436 1.374474 -1.801521
2008-01-30 09:05:59 51°20.471 3°2.184 -999 0.240333 1.374019 -1.801521
2008-01-30 09:06:04 51°20.477 3°2.206 -999 0.240539 1.37504 -1.766697
2008-01-30 09:06:09 51°20.479 3°2.23 -999 0.240539 1.37504 -1.766697
2008-01-30 09:06:14 51°20.485 3°2.253 -999 0.240333 1.374101 -1.801521
2008-01-30 09:06:19 51°20.489 3°2.277 -999 0.240436 1.374612 -1.801521
2008-01-30 09:06:24 51°20.494 3°2.3 -999 0.240539 1.375287 -1.801521
2008-01-30 09:06:29 51°20.499 3°2.323 -999 0.240436 1.374612 -1.801521
2008-01-30 09:06:34 51°20.503 3°2.347 -999 0.240436 1.374612 -1.801521
2008-01-30 09:06:39 51°20.508 3°2.37 -999 0.240436 1.374584 -1.801521
2008-01-30 09:06:44 51°20.512 3°2.394 -999 0.240436 1.374502 -1.801521
2008-01-30 09:06:49 51°20.517 3°2.417 -999 0.240333 1.374019 -1.801521
2008-01-30 09:06:54 51°20.52 3°2.441 -999 0.240436 1.374474 -1.801521
2008-01-30 09:06:59 51°20.524 3°2.464 -999 0.240436 1.374694 -1.801521
2008-01-30 09:07:04 51°20.529 3°2.487 -999 0.240436 1.374584 -1.801521
2008-01-30 09:07:09 51°20.532 3°2.511 -999 0.240436 1.374584 -1.801521
2008-01-30 09:07:14 51°20.538 3°2.534 -999 0.240333 1.374101 -1.801521
2008-01-30 09:07:19 51°20.542 3°2.557 -999 0.240436 1.374584 -1.766697
2008-01-30 09:07:24 51°20.546 3°2.582 -999 0.24023 1.373453 -1.801521
2008-01-30 09:07:29 51°20.551 3°2.604 -999 0.240436 1.374502 -1.766697
2008-01-30 09:07:34 51°20.554 3°2.629 -999 0.240333 1.374074 -1.801521
2008-01-30 09:07:39 51°20.559 3°2.651 -999 0.240333 1.374074 -1.801521
2008-01-30 09:07:44 51°20.562 3°2.676 -999 0.240436 1.374584 -1.801521
2008-01-30 09:07:49 51°20.567 3°2.699 -999 0.240333 1.374156 -1.801521
2008-01-30 09:07:54 51°20.57 3°2.722 -999 0.240333 1.374019 -1.801521
2008-01-30 09:07:59 51°20.574 3°2.746 -999 0.240436 1.374776 -1.801521
2008-01-30 09:08:04 51°20.577 3°2.77 -999 0.240436 1.374776 -1.801521
2008-01-30 09:08:09 51°20.581 3°2.793 -999 0.240333 1.374074 -1.766697
2008-01-30 09:08:14 51°20.584 3°2.818 -999 0.240436 1.374612 -1.801521
2008-01-30 09:08:19 51°20.589 3°2.841 -999 0.240333 1.374156 -1.801521
2008-01-30 09:08:24 51°20.591 3°2.865 -999 0.24023 1.373398 -1.801521
2008-01-30 09:08:29 51°20.596 3°2.888 -999 0.240539 1.37537 -1.801521
2008-01-30 09:08:34 51°20.599 3°2.912 -999 0.240539 1.37537 -1.801521
2008-01-30 09:08:39 51°20.603 3°2.936 -999 0.240436 1.374804 -1.801521
2008-01-30 09:08:44 51°20.608 3°2.959 -999 0.240333 1.374183 -1.801521
2008-01-30 09:08:49 51°20.61 3°2.983 -999 0.24023 1.373563 -1.801521
2008-01-30 09:08:54 51°20.616 3°3.006 -999 0.240539 1.375397 -1.801521
2008-01-30 09:08:59 51°20.619 3°3.03 -999 0.240436 1.374831 -1.801521
2008-01-30 09:09:04 51°20.624 3°3.053 -999 0.240539 1.375315 -1.801521
2008-01-30 09:09:09 51°20.626 3°3.077 -999 0.240539 1.375315 -1.801521
2008-01-30 09:09:14 51°20.631 3°3.101 -999 0.24023 1.37359 -1.801521
2008-01-30 09:09:19 51°20.634 3°3.124 -999 0.240436 1.374722 -1.801521
2008-01-30 09:09:24 51°20.637 3°3.149 -999 0.240333 1.374183 -1.801521
2008-01-30 09:09:29 51°20.64 3°3.173 -999 0.240539 1.375342 -1.801521
2008-01-30 09:09:34 51°20.642 3°3.197 -999 0.240436 1.374831 -1.801521
2008-01-30 09:09:39 51°20.646 3°3.221 -999 0.240436 1.374831 -1.801521
2008-01-30 09:09:44 51°20.647 3°3.246 -999 0.240333 1.374156 -1.801521
2008-01-30 09:09:49 51°20.652 3°3.269 -999 0.240539 1.375535 -1.766697
2008-01-30 09:09:54 51°20.653 3°3.293 -999 0.240333 1.374293 -1.801521
2008-01-30 09:09:59 51°20.657 3°3.317 -999 0.240436 1.374804 -1.801521
2008-01-30 09:10:04 51°20.659 3°3.341 -999 0.240436 1.374804 -1.801521
2008-01-30 09:10:09 51°20.661 3°3.365 -999 0.240436 1.374859 -1.801521
2008-01-30 09:10:14 51°20.666 3°3.388 -999 0.240436 1.374804 -1.801521
2008-01-30 09:10:19 51°20.667 3°3.413 -999 0.240333 1.373964 -1.801521
2008-01-30 09:10:24 51°20.671 3°3.437 -999 0.240539 1.375287 -1.801521
2008-01-30 09:10:29 51°20.673 3°3.462 -999 0.240333 1.374128 -1.801521
2008-01-30 09:10:34 51°20.677 3°3.486 -999 0.240333 1.374128 -1.801521
2008-01-30 09:10:39 51°20.679 3°3.51 -999 0.240641 1.376018 -1.801521
2008-01-30 09:10:44 51°20.682 3°3.534 -999 0.240333 1.374321 -1.801521
2008-01-30 09:10:49 51°20.686 3°3.558 -999 0.240539 1.375452 -1.801521
2008-01-30 09:10:54 51°20.689 3°3.582 -999 0.240436 1.374969 -1.801521
2008-01-30 09:10:59 51°20.693 3°3.606 -999 0.240333 1.374211 -1.801521
2008-01-30 09:11:04 51°20.697 3°3.63 -999 0.240436 1.374831 -1.801521
2008-01-30 09:11:09 51°20.701 3°3.654 -999 0.240436 1.374831 -1.801521
2008-01-30 09:11:14 51°20.704 3°3.679 -999 0.240539 1.375315 -1.801521
2008-01-30 09:11:19 51°20.709 3°3.703 -999 0.240436 1.374722 -1.801521
2008-01-30 09:11:24 51°20.713 3°3.727 -999 0.240436 1.374749 -1.801521
2008-01-30 09:11:29 51°20.716 3°3.752 -999 0.24023 1.373673 -1.801521
2008-01-30 09:11:34 51°20.722 3°3.776 -999 0.240539 1.37559 -1.801521
2008-01-30 09:11:39 51°20.726 3°3.801 -999 0.240539 1.37559 -1.801521
2008-01-30 09:11:44 51°20.731 3°3.825 -999 0.240333 1.374348 -1.801521
2008-01-30 09:11:49 51°20.733 3°3.85 -999 0.240436 1.374914 -1.801521
2008-01-30 09:11:54 51°20.738 3°3.874 -999 0.240641 1.376155 -1.801521
2008-01-30 09:11:59 51°20.739 3°3.9 -999 0.240436 1.374831 -1.801521
2008-01-30 09:12:04 51°20.742 3°3.925 -999 0.240436 1.374831 -1.801521
2008-01-30 09:12:09 51°20.745 3°3.95 -999 0.240333 1.374266 -1.801521
2008-01-30 09:12:14 51°20.747 3°3.975 -999 0.240436 1.374859 -1.801521
2008-01-30 09:12:19 51°20.749 3°4.002 -999 0.240436 1.374996 -1.801521
2008-01-30 09:12:24 51°20.753 3°4.026 -999 0.240641 1.376183 -1.801521
2008-01-30 09:12:29 51°20.753 3°4.052 -999 0.240436 1.375024 -1.766697
2008-01-30 09:12:34 51°20.755 3°4.078 -999 0.240333 1.374513 -1.801521
2008-01-30 09:12:39 51°20.759 3°4.101 -999 0.240333 1.374513 -1.801521
2008-01-30 09:12:44 51°20.758 3°4.127 -999 0.240436 1.374914 -1.801521
2008-01-30 09:12:49 51°20.762 3°4.153 -999 0.240539 1.375837 -1.801521
2008-01-30 09:12:54 51°20.764 3°4.178 -999 0.240436 1.374941 -1.801521
2008-01-30 09:12:59 51°20.767 3°4.202 -999 0.240436 1.374914 -1.801521
2008-01-30 09:13:04 51°20.769 3°4.228 -999 0.240436 1.374914 -1.801521
2008-01-30 09:13:09 51°20.773 3°4.253 -999 0.240436 1.374914 -1.801521
2008-01-30 09:13:14 51°20.776 3°4.278 -999 0.240436 1.374749 -1.801521
2008-01-30 09:13:19 51°20.778 3°4.303 -999 0.240333 1.374293 -1.801521
2008-01-30 09:13:24 51°20.781 3°4.329 -999 0.240436 1.374859 -1.801521
2008-01-30 09:13:29 51°20.783 3°4.355 -999 0.240436 1.375161 -1.801521
2008-01-30 09:13:34 51°20.787 3°4.38 -999 0.240436 1.375161 -1.801521
2008-01-30 09:13:39 51°20.788 3°4.404 -999 0.240539 1.375672 -1.801521
2008-01-30 09:13:44 51°20.79 3°4.43 -999 0.240539 1.375782 -1.801521
2008-01-30 09:13:49 51°20.795 3°4.455 -999 0.240539 1.375727 -1.801521
2008-01-30 09:13:54 51°20.796 3°4.48 -999 0.240333 1.374458 -1.801521
2008-01-30 09:13:59 51°20.799 3°4.506 -999 0.240436 1.375106 -1.801521
2008-01-30 09:14:04 51°20.802 3°4.531 -999 0.240436 1.375106 -1.801521
2008-01-30 09:14:09 51°20.804 3°4.557 -999 0.240539 1.375562 -1.801521
2008-01-30 09:14:14 51°20.809 3°4.581 -999 0.240333 1.374596 -1.801521
2008-01-30 09:14:19 51°20.811 3°4.606 -999 0.240436 1.375079 -1.801521
2008-01-30 09:14:24 51°20.813 3°4.631 -999 0.240333 1.374623 -1.801521
2008-01-30 09:14:29 51°20.818 3°4.656 -999 0.240436 1.375161 -1.801521
2008-01-30 09:14:34 51°20.821 3°4.681 -999 0.240539 1.375755 -1.801521
2008-01-30 09:14:39 51°20.824 3°4.707 -999 0.240539 1.375755 -1.801521
2008-01-30 09:14:44 51°20.828 3°4.731 -999 0.240539 1.375727 -1.801521
2008-01-30 09:14:49 51°20.831 3°4.756 -999 0.240436 1.375024 -1.801521
2008-01-30 09:14:54 51°20.835 3°4.781 -999 0.240436 1.375189 -1.801521
2008-01-30 09:14:59 51°20.839 3°4.806 -999 0.240436 1.375134 -1.801521
2008-01-30 09:15:04 51°20.843 3°4.83 -999 0.240333 1.374486 -1.801521
2008-01-30 09:15:09 51°20.847 3°4.854 -999 0.240333 1.374486 -1.801521
2008-01-30 09:15:14 51°20.85 3°4.88 -999 0.240436 1.375189 -1.801521
2008-01-30 09:15:19 51°20.855 3°4.904 -999 0.240539 1.37581 -1.801521
2008-01-30 09:15:24 51°20.858 3°4.929 -999 0.240333 1.374651 -1.801521
2008-01-30 09:15:29 51°20.862 3°4.953 -999 0.240436 1.375106 -1.801521
2008-01-30 09:15:34 51°20.865 3°4.978 -999 0.240436 1.375106 -1.801521
2008-01-30 09:15:39 51°20.871 3°5.002 -999 0.240539 1.376002 -1.801521
2008-01-30 09:15:44 51°20.873 3°5.027 -999 0.240436 1.375161 -1.801521
2008-01-30 09:15:49 51°20.877 3°5.051 -999 0.240539 1.37592 -1.801521
2008-01-30 09:15:54 51°20.88 3°5.077 -999 0.240436 1.375134 -1.801521
2008-01-30 09:15:59 51°20.885 3°5.101 -999 0.240641 1.376293 -1.801521
2008-01-30 09:16:04 51°20.886 3°5.126 -999 0.240436 1.375024 -1.801521
2008-01-30 09:16:09 51°20.89 3°5.15 -999 0.240436 1.375024 -1.801521
2008-01-30 09:16:14 51°20.892 3°5.176 -999 0.240333 1.374568 -1.801521
2008-01-30 09:16:19 51°20.897 3°5.2 -999 0.240744 1.377051 -1.766697
2008-01-30 09:16:24 51°20.898 3°5.225 -999 0.240333 1.374705 -1.801521
2008-01-30 09:16:29 51°20.902 3°5.25 -999 0.240436 1.375244 -1.801521
2008-01-30 09:16:34 51°20.904 3°5.276 -999 0.240436 1.375381 -1.801521
2008-01-30 09:16:39 51°20.909 3°5.3 -999 0.240436 1.375381 -1.801521
2008-01-30 09:16:44 51°20.91 3°5.325 -999 0.240333 1.374651 -1.766697
2008-01-30 09:16:49 51°20.914 3°5.351 -999 0.240641 1.37654 -1.801521
2008-01-30 09:16:54 51°20.918 3°5.376 -999 0.240641 1.376513 -1.801521
2008-01-30 09:16:59 51°20.919 3°5.401 -999 0.240436 1.375244 -1.801521
2008-01-30 09:17:04 51°20.923 3°5.426 -999 0.240436 1.375244 -1.801521
2008-01-30 09:17:09 51°20.925 3°5.451 -999 0.240641 1.376568 -1.801521
2008-01-30 09:17:14 51°20.928 3°5.476 -999 0.240641 1.376596 -1.801521
2008-01-30 09:17:19 51°20.932 3°5.501 -999 0.240436 1.375601 -1.801521
2008-01-30 09:17:24 51°20.935 3°5.526 -999 0.240436 1.375326 -1.801521
2008-01-30 09:17:29 51°20.938 3°5.55 -999 0.240539 1.376057 -1.801521
2008-01-30 09:17:34 51°20.941 3°5.575 -999 0.240539 1.376057 -1.801521
2008-01-30 09:17:39 51°20.945 3°5.599 -999 0.240436 1.375299 -1.801521
2008-01-30 09:17:44 51°20.947 3°5.625 -999 0.240539 1.375865 -1.801521
2008-01-30 09:17:49 51°20.954 3°5.649 -999 0.240539 1.376112 -1.766697
2008-01-30 09:17:54 51°20.955 3°5.674 -999 0.240333 1.374705 -1.801521
2008-01-30 09:17:59 51°20.961 3°5.698 -999 0.240641 1.376733 -1.801521
2008-01-30 09:18:04 51°20.963 3°5.723 -999 0.240539 1.376057 -1.801521
2008-01-30 09:18:09 51°20.968 3°5.747 -999 0.240539 1.376057 -1.801521
2008-01-30 09:18:14 51°20.971 3°5.773 -999 0.240436 1.375354 -1.801521
2008-01-30 09:18:19 51°20.976 3°5.798 -999 0.240539 1.37603 -1.801521
2008-01-30 09:18:24 51°20.98 3°5.821 -999 0.240641 1.376458 -1.801521
2008-01-30 09:18:29 51°20.982 3°5.846 -999 0.240436 1.375381 -1.801521
2008-01-30 09:18:34 51°20.987 3°5.872 -999 0.240641 1.376788 -1.801521
2008-01-30 09:18:39 51°20.992 3°5.895 -999 0.240641 1.376788 -1.801521
2008-01-30 09:18:44 51°20.996 3°5.919 -999 0.240333 1.374898 -1.801521
2008-01-30 09:18:49 51°21.001 3°5.944 -999 0.240641 1.376706 -1.801521
2008-01-30 09:18:54 51°21.004 3°5.968 -999 0.240539 1.376002 -1.801521
2008-01-30 09:18:59 51°21.008 3°5.992 -999 0.240539 1.375865 -1.801521
2008-01-30 09:19:04 51°21.012 3°6.017 -999 0.240539 1.375865 -1.801521
2008-01-30 09:19:09 51°21.015 3°6.043 -999 0.240539 1.375892 -1.766697
2008-01-30 09:19:14 51°21.022 3°6.066 -999 0.240539 1.376002 -1.801521
2008-01-30 09:19:19 51°21.023 3°6.09 -999 0.240436 1.375244 -1.801521
2008-01-30 09:19:24 51°21.028 3°6.115 -999 0.240641 1.376761 -1.801521
2008-01-30 09:19:29 51°21.032 3°6.14 -999 0.240539 1.37614 -1.801521
2008-01-30 09:19:34 51°21.036 3°6.164 -999 0.240539 1.376112 -1.766697
2008-01-30 09:19:39 51°21.041 3°6.187 -999 0.240539 1.376112 -1.766697
2008-01-30 09:19:44 51°21.044 3°6.212 -999 0.240641 1.376706 -1.801521
2008-01-30 09:19:49 51°21.049 3°6.235 -999 0.240539 1.376085 -1.801521